<?xml version="1.0" encoding="UTF-8" standalone="no" ?>
<gpx xmlns="http://www.topografix.com/GPX/1/1" xmlns:xsi="http://www.w3.org/2001/XMLSchema-instance" xsi:schemaLocation="http://www.topografix.com/GPX/1/1 http://www.topografix.com/GPX/1/1/gpx.xsd" version="1.1" creator="VisuGPX - https://www.visugpx.com">
  <metadata>
    <name>83-Vj-2012-02-11-Cotignac : ND de Grâces </name>
    <desc><![CDATA[Cotignac : ND de Grâces / Galère / St Martin / Derroc
Attention : 43.533740° / 06.164180° 
vers Vallon du Clos d'Auquier: passage sur propriété privée.]]></desc>
  </metadata>
  <trk>
    <name><![CDATA[2012-11-02-cotignac]]></name>
    <trkseg>
      <trkpt lat="43.52656" lon="6.14996">
        <ele>211.898391</ele>
        <time>2012-11-02T07:38:08Z</time>
      </trkpt>
      <trkpt lat="43.52656" lon="6.14984">
        <ele>211.684371</ele>
        <time>2012-11-02T07:38:20Z</time>
      </trkpt>
      <trkpt lat="43.52657" lon="6.14972">
        <ele>212.335006</ele>
        <time>2012-11-02T07:38:33Z</time>
      </trkpt>
      <trkpt lat="43.52652" lon="6.14964">
        <ele>212.32814</ele>
        <time>2012-11-02T07:38:37Z</time>
      </trkpt>
      <trkpt lat="43.52645" lon="6.14958">
        <ele>211.315841</ele>
        <time>2012-11-02T07:38:42Z</time>
      </trkpt>
      <trkpt lat="43.52638" lon="6.1495">
        <ele>212.120574</ele>
        <time>2012-11-02T07:38:51Z</time>
      </trkpt>
      <trkpt lat="43.52637" lon="6.14949">
        <ele>211.879043</ele>
        <time>2012-11-02T07:38:52Z</time>
      </trkpt>
      <trkpt lat="43.52627" lon="6.14938">
        <ele>210.3</ele>
        <time>2012-11-02T07:39:09Z</time>
      </trkpt>
      <trkpt lat="43.52619" lon="6.14936">
        <ele>209.4</ele>
        <time>2012-11-02T07:39:17Z</time>
      </trkpt>
      <trkpt lat="43.52613" lon="6.14928">
        <ele>208.6</ele>
        <time>2012-11-02T07:39:33Z</time>
      </trkpt>
      <trkpt lat="43.52606" lon="6.1492">
        <ele>208</ele>
        <time>2012-11-02T07:39:41Z</time>
      </trkpt>
      <trkpt lat="43.52601" lon="6.14913">
        <ele>207.3</ele>
        <time>2012-11-02T07:39:49Z</time>
      </trkpt>
      <trkpt lat="43.52593" lon="6.14907">
        <ele>207.4</ele>
        <time>2012-11-02T07:39:57Z</time>
      </trkpt>
      <trkpt lat="43.52593" lon="6.14907">
        <ele>207.1</ele>
        <time>2012-11-02T07:39:58Z</time>
      </trkpt>
      <trkpt lat="43.52576" lon="6.14902">
        <ele>206.7</ele>
        <time>2012-11-02T07:40:17Z</time>
      </trkpt>
      <trkpt lat="43.52568" lon="6.149">
        <ele>207.4</ele>
        <time>2012-11-02T07:40:40Z</time>
      </trkpt>
      <trkpt lat="43.5256" lon="6.14904">
        <ele>208</ele>
        <time>2012-11-02T07:40:50Z</time>
      </trkpt>
      <trkpt lat="43.52558" lon="6.14915">
        <ele>207.9</ele>
        <time>2012-11-02T07:40:58Z</time>
      </trkpt>
      <trkpt lat="43.52558" lon="6.14917">
        <ele>208.2</ele>
        <time>2012-11-02T07:40:59Z</time>
      </trkpt>
      <trkpt lat="43.52542" lon="6.14924">
        <ele>210.5</ele>
        <time>2012-11-02T07:41:15Z</time>
      </trkpt>
      <trkpt lat="43.52534" lon="6.14926">
        <ele>211.5</ele>
        <time>2012-11-02T07:41:24Z</time>
      </trkpt>
      <trkpt lat="43.52525" lon="6.14924">
        <ele>213.6</ele>
        <time>2012-11-02T07:41:33Z</time>
      </trkpt>
      <trkpt lat="43.52517" lon="6.14925">
        <ele>214.6</ele>
        <time>2012-11-02T07:41:43Z</time>
      </trkpt>
      <trkpt lat="43.52509" lon="6.14929">
        <ele>216.5</ele>
        <time>2012-11-02T07:41:53Z</time>
      </trkpt>
      <trkpt lat="43.52501" lon="6.1493">
        <ele>217.7</ele>
        <time>2012-11-02T07:42:04Z</time>
      </trkpt>
      <trkpt lat="43.525" lon="6.1493">
        <ele>217.8</ele>
        <time>2012-11-02T07:42:05Z</time>
      </trkpt>
      <trkpt lat="43.52484" lon="6.14931">
        <ele>220.2</ele>
        <time>2012-11-02T07:42:23Z</time>
      </trkpt>
      <trkpt lat="43.52475" lon="6.14932">
        <ele>220.5</ele>
        <time>2012-11-02T07:42:30Z</time>
      </trkpt>
      <trkpt lat="43.52467" lon="6.14934">
        <ele>221</ele>
        <time>2012-11-02T07:42:38Z</time>
      </trkpt>
      <trkpt lat="43.52459" lon="6.14933">
        <ele>221.2</ele>
        <time>2012-11-02T07:42:47Z</time>
      </trkpt>
      <trkpt lat="43.52451" lon="6.14929">
        <ele>221.3</ele>
        <time>2012-11-02T07:42:55Z</time>
      </trkpt>
      <trkpt lat="43.52445" lon="6.14922">
        <ele>222</ele>
        <time>2012-11-02T07:43:04Z</time>
      </trkpt>
      <trkpt lat="43.52442" lon="6.14911">
        <ele>222.8</ele>
        <time>2012-11-02T07:43:13Z</time>
      </trkpt>
      <trkpt lat="43.52442" lon="6.1491">
        <ele>223</ele>
        <time>2012-11-02T07:43:14Z</time>
      </trkpt>
      <trkpt lat="43.52444" lon="6.14887">
        <ele>226.3</ele>
        <time>2012-11-02T07:43:32Z</time>
      </trkpt>
      <trkpt lat="43.52446" lon="6.14876">
        <ele>227.1</ele>
        <time>2012-11-02T07:43:41Z</time>
      </trkpt>
      <trkpt lat="43.52451" lon="6.14866">
        <ele>228.2</ele>
        <time>2012-11-02T07:43:49Z</time>
      </trkpt>
      <trkpt lat="43.52456" lon="6.14857">
        <ele>228.1</ele>
        <time>2012-11-02T07:43:58Z</time>
      </trkpt>
      <trkpt lat="43.52462" lon="6.14848">
        <ele>228.7</ele>
        <time>2012-11-02T07:44:07Z</time>
      </trkpt>
      <trkpt lat="43.52467" lon="6.14838">
        <ele>229.7</ele>
        <time>2012-11-02T07:44:16Z</time>
      </trkpt>
      <trkpt lat="43.52468" lon="6.14837">
        <ele>229.7</ele>
        <time>2012-11-02T07:44:17Z</time>
      </trkpt>
      <trkpt lat="43.52478" lon="6.14819">
        <ele>231.4</ele>
        <time>2012-11-02T07:44:36Z</time>
      </trkpt>
      <trkpt lat="43.5248" lon="6.14807">
        <ele>232</ele>
        <time>2012-11-02T07:44:46Z</time>
      </trkpt>
      <trkpt lat="43.52482" lon="6.14796">
        <ele>232.6</ele>
        <time>2012-11-02T07:44:57Z</time>
      </trkpt>
      <trkpt lat="43.52485" lon="6.14785">
        <ele>233.6</ele>
        <time>2012-11-02T07:45:06Z</time>
      </trkpt>
      <trkpt lat="43.52488" lon="6.14774">
        <ele>233.6</ele>
        <time>2012-11-02T07:45:15Z</time>
      </trkpt>
      <trkpt lat="43.52492" lon="6.14764">
        <ele>234.9</ele>
        <time>2012-11-02T07:45:24Z</time>
      </trkpt>
      <trkpt lat="43.52492" lon="6.14763">
        <ele>235</ele>
        <time>2012-11-02T07:45:25Z</time>
      </trkpt>
      <trkpt lat="43.52501" lon="6.14744">
        <ele>236.3</ele>
        <time>2012-11-02T07:45:43Z</time>
      </trkpt>
      <trkpt lat="43.52507" lon="6.14736">
        <ele>237.1</ele>
        <time>2012-11-02T07:45:52Z</time>
      </trkpt>
      <trkpt lat="43.52512" lon="6.14727">
        <ele>238.1</ele>
        <time>2012-11-02T07:46:01Z</time>
      </trkpt>
      <trkpt lat="43.52518" lon="6.14717">
        <ele>239</ele>
        <time>2012-11-02T07:46:11Z</time>
      </trkpt>
      <trkpt lat="43.52523" lon="6.14709">
        <ele>239.4</ele>
        <time>2012-11-02T07:46:19Z</time>
      </trkpt>
      <trkpt lat="43.52527" lon="6.14698">
        <ele>239.5</ele>
        <time>2012-11-02T07:46:28Z</time>
      </trkpt>
      <trkpt lat="43.52528" lon="6.14697">
        <ele>239.7</ele>
        <time>2012-11-02T07:46:29Z</time>
      </trkpt>
      <trkpt lat="43.52538" lon="6.1468">
        <ele>240.9</ele>
        <time>2012-11-02T07:46:47Z</time>
      </trkpt>
      <trkpt lat="43.52545" lon="6.14673">
        <ele>241.7</ele>
        <time>2012-11-02T07:46:56Z</time>
      </trkpt>
      <trkpt lat="43.52552" lon="6.14665">
        <ele>242.8</ele>
        <time>2012-11-02T07:47:05Z</time>
      </trkpt>
      <trkpt lat="43.52556" lon="6.14656">
        <ele>243.7</ele>
        <time>2012-11-02T07:47:15Z</time>
      </trkpt>
      <trkpt lat="43.52562" lon="6.14646">
        <ele>244.8</ele>
        <time>2012-11-02T07:47:25Z</time>
      </trkpt>
      <trkpt lat="43.52564" lon="6.14635">
        <ele>246.3</ele>
        <time>2012-11-02T07:47:35Z</time>
      </trkpt>
      <trkpt lat="43.52564" lon="6.14634">
        <ele>246.4</ele>
        <time>2012-11-02T07:47:36Z</time>
      </trkpt>
      <trkpt lat="43.52567" lon="6.14612">
        <ele>249.6</ele>
        <time>2012-11-02T07:47:56Z</time>
      </trkpt>
      <trkpt lat="43.52567" lon="6.146">
        <ele>250.8</ele>
        <time>2012-11-02T07:48:05Z</time>
      </trkpt>
      <trkpt lat="43.5256" lon="6.14592">
        <ele>252.2</ele>
        <time>2012-11-02T07:48:15Z</time>
      </trkpt>
      <trkpt lat="43.52552" lon="6.14593">
        <ele>253.2</ele>
        <time>2012-11-02T07:48:24Z</time>
      </trkpt>
      <trkpt lat="43.52545" lon="6.14599">
        <ele>254.3</ele>
        <time>2012-11-02T07:48:40Z</time>
      </trkpt>
      <trkpt lat="43.52544" lon="6.146">
        <ele>254.1</ele>
        <time>2012-11-02T07:48:41Z</time>
      </trkpt>
      <trkpt lat="43.52536" lon="6.146">
        <ele>257.9</ele>
        <time>2012-11-02T07:52:12Z</time>
      </trkpt>
      <trkpt lat="43.52519" lon="6.14606">
        <ele>258.5</ele>
        <time>2012-11-02T07:52:39Z</time>
      </trkpt>
      <trkpt lat="43.52511" lon="6.14608">
        <ele>259.1</ele>
        <time>2012-11-02T07:52:50Z</time>
      </trkpt>
      <trkpt lat="43.52502" lon="6.14611">
        <ele>260.6</ele>
        <time>2012-11-02T07:53:03Z</time>
      </trkpt>
      <trkpt lat="43.52494" lon="6.14613">
        <ele>261.6</ele>
        <time>2012-11-02T07:53:15Z</time>
      </trkpt>
      <trkpt lat="43.52493" lon="6.14613">
        <ele>261.5</ele>
        <time>2012-11-02T07:53:16Z</time>
      </trkpt>
      <trkpt lat="43.52476" lon="6.14618">
        <ele>262.6</ele>
        <time>2012-11-02T07:53:38Z</time>
      </trkpt>
      <trkpt lat="43.52468" lon="6.14619">
        <ele>263.8</ele>
        <time>2012-11-02T07:53:48Z</time>
      </trkpt>
      <trkpt lat="43.5246" lon="6.14622">
        <ele>264.1</ele>
        <time>2012-11-02T07:53:59Z</time>
      </trkpt>
      <trkpt lat="43.52452" lon="6.14626">
        <ele>265.1</ele>
        <time>2012-11-02T07:54:10Z</time>
      </trkpt>
      <trkpt lat="43.52444" lon="6.14632">
        <ele>266.4</ele>
        <time>2012-11-02T07:54:24Z</time>
      </trkpt>
      <trkpt lat="43.52443" lon="6.14632">
        <ele>266.2</ele>
        <time>2012-11-02T07:54:25Z</time>
      </trkpt>
      <trkpt lat="43.52428" lon="6.14641">
        <ele>267</ele>
        <time>2012-11-02T07:54:47Z</time>
      </trkpt>
      <trkpt lat="43.52421" lon="6.14644">
        <ele>267.3</ele>
        <time>2012-11-02T07:54:56Z</time>
      </trkpt>
      <trkpt lat="43.52412" lon="6.14646">
        <ele>268.7</ele>
        <time>2012-11-02T07:55:05Z</time>
      </trkpt>
      <trkpt lat="43.52404" lon="6.14648">
        <ele>269.3</ele>
        <time>2012-11-02T07:55:14Z</time>
      </trkpt>
      <trkpt lat="43.52396" lon="6.14653">
        <ele>269.8</ele>
        <time>2012-11-02T07:55:26Z</time>
      </trkpt>
      <trkpt lat="43.52395" lon="6.14653">
        <ele>269.7</ele>
        <time>2012-11-02T07:55:27Z</time>
      </trkpt>
      <trkpt lat="43.52383" lon="6.14669">
        <ele>271.2</ele>
        <time>2012-11-02T07:55:51Z</time>
      </trkpt>
      <trkpt lat="43.52375" lon="6.14674">
        <ele>271.1</ele>
        <time>2012-11-02T07:56:03Z</time>
      </trkpt>
      <trkpt lat="43.52366" lon="6.14677">
        <ele>273.2</ele>
        <time>2012-11-02T07:56:33Z</time>
      </trkpt>
      <trkpt lat="43.52366" lon="6.14677">
        <ele>273.3</ele>
        <time>2012-11-02T07:56:34Z</time>
      </trkpt>
      <trkpt lat="43.5235" lon="6.14684">
        <ele>276.6</ele>
        <time>2012-11-02T07:57:03Z</time>
      </trkpt>
      <trkpt lat="43.52341" lon="6.14686">
        <ele>277.5</ele>
        <time>2012-11-02T07:57:14Z</time>
      </trkpt>
      <trkpt lat="43.52334" lon="6.14691">
        <ele>279.8</ele>
        <time>2012-11-02T07:57:29Z</time>
      </trkpt>
      <trkpt lat="43.52325" lon="6.14695">
        <ele>281.3</ele>
        <time>2012-11-02T07:57:42Z</time>
      </trkpt>
      <trkpt lat="43.52324" lon="6.14695">
        <ele>281.1</ele>
        <time>2012-11-02T07:57:43Z</time>
      </trkpt>
      <trkpt lat="43.52309" lon="6.14701">
        <ele>283.6</ele>
        <time>2012-11-02T07:58:03Z</time>
      </trkpt>
      <trkpt lat="43.52301" lon="6.14704">
        <ele>284.7</ele>
        <time>2012-11-02T07:58:16Z</time>
      </trkpt>
      <trkpt lat="43.52292" lon="6.14709">
        <ele>286.8</ele>
        <time>2012-11-02T07:58:30Z</time>
      </trkpt>
      <trkpt lat="43.52284" lon="6.14711">
        <ele>288.5</ele>
        <time>2012-11-02T07:58:42Z</time>
      </trkpt>
      <trkpt lat="43.52276" lon="6.14715">
        <ele>290.6</ele>
        <time>2012-11-02T07:58:54Z</time>
      </trkpt>
      <trkpt lat="43.52275" lon="6.14715">
        <ele>290.7</ele>
        <time>2012-11-02T07:58:55Z</time>
      </trkpt>
      <trkpt lat="43.52259" lon="6.1472">
        <ele>293.1</ele>
        <time>2012-11-02T07:59:23Z</time>
      </trkpt>
      <trkpt lat="43.5225" lon="6.1472">
        <ele>295.6</ele>
        <time>2012-11-02T07:59:37Z</time>
      </trkpt>
      <trkpt lat="43.52242" lon="6.14718">
        <ele>297.5</ele>
        <time>2012-11-02T07:59:54Z</time>
      </trkpt>
      <trkpt lat="43.52234" lon="6.14714">
        <ele>298.5</ele>
        <time>2012-11-02T08:00:03Z</time>
      </trkpt>
      <trkpt lat="43.52233" lon="6.14714">
        <ele>298.7</ele>
        <time>2012-11-02T08:00:04Z</time>
      </trkpt>
      <trkpt lat="43.52217" lon="6.14709">
        <ele>300.8</ele>
        <time>2012-11-02T08:00:24Z</time>
      </trkpt>
      <trkpt lat="43.52208" lon="6.14711">
        <ele>301.6</ele>
        <time>2012-11-02T08:00:39Z</time>
      </trkpt>
      <trkpt lat="43.522" lon="6.14713">
        <ele>303.6</ele>
        <time>2012-11-02T08:00:56Z</time>
      </trkpt>
      <trkpt lat="43.52191" lon="6.14716">
        <ele>305.1</ele>
        <time>2012-11-02T08:01:11Z</time>
      </trkpt>
      <trkpt lat="43.5219" lon="6.14716">
        <ele>305</ele>
        <time>2012-11-02T08:01:12Z</time>
      </trkpt>
      <trkpt lat="43.52182" lon="6.14719">
        <ele>311.5</ele>
        <time>2012-11-02T08:05:52Z</time>
      </trkpt>
      <trkpt lat="43.52166" lon="6.14723">
        <ele>313.3</ele>
        <time>2012-11-02T08:06:20Z</time>
      </trkpt>
      <trkpt lat="43.52157" lon="6.14726">
        <ele>315.3</ele>
        <time>2012-11-02T08:06:34Z</time>
      </trkpt>
      <trkpt lat="43.52149" lon="6.14731">
        <ele>317.2</ele>
        <time>2012-11-02T08:06:53Z</time>
      </trkpt>
      <trkpt lat="43.52149" lon="6.14731">
        <ele>317.4</ele>
        <time>2012-11-02T08:06:54Z</time>
      </trkpt>
      <trkpt lat="43.52132" lon="6.14734">
        <ele>320</ele>
        <time>2012-11-02T08:07:36Z</time>
      </trkpt>
      <trkpt lat="43.52124" lon="6.14738">
        <ele>321.9</ele>
        <time>2012-11-02T08:07:52Z</time>
      </trkpt>
      <trkpt lat="43.52115" lon="6.1474">
        <ele>324.6</ele>
        <time>2012-11-02T08:08:08Z</time>
      </trkpt>
      <trkpt lat="43.52114" lon="6.1474">
        <ele>324.8</ele>
        <time>2012-11-02T08:08:09Z</time>
      </trkpt>
      <trkpt lat="43.52098" lon="6.14743">
        <ele>328.3</ele>
        <time>2012-11-02T08:08:35Z</time>
      </trkpt>
      <trkpt lat="43.5209" lon="6.14745">
        <ele>329.7</ele>
        <time>2012-11-02T08:08:49Z</time>
      </trkpt>
      <trkpt lat="43.52081" lon="6.14746">
        <ele>331.1</ele>
        <time>2012-11-02T08:09:04Z</time>
      </trkpt>
      <trkpt lat="43.52072" lon="6.14747">
        <ele>332.8</ele>
        <time>2012-11-02T08:09:19Z</time>
      </trkpt>
      <trkpt lat="43.52072" lon="6.14748">
        <ele>333</ele>
        <time>2012-11-02T08:09:20Z</time>
      </trkpt>
      <trkpt lat="43.52055" lon="6.1475">
        <ele>336.9</ele>
        <time>2012-11-02T08:09:48Z</time>
      </trkpt>
      <trkpt lat="43.52047" lon="6.14749">
        <ele>337.7</ele>
        <time>2012-11-02T08:10:01Z</time>
      </trkpt>
      <trkpt lat="43.52039" lon="6.14744">
        <ele>338.9</ele>
        <time>2012-11-02T08:10:16Z</time>
      </trkpt>
      <trkpt lat="43.52032" lon="6.14737">
        <ele>339.9</ele>
        <time>2012-11-02T08:10:30Z</time>
      </trkpt>
      <trkpt lat="43.52031" lon="6.14737">
        <ele>339.9</ele>
        <time>2012-11-02T08:10:31Z</time>
      </trkpt>
      <trkpt lat="43.5204" lon="6.14742">
        <ele>341</ele>
        <time>2012-11-02T08:13:34Z</time>
      </trkpt>
      <trkpt lat="43.52056" lon="6.14737">
        <ele>341.7</ele>
        <time>2012-11-02T08:14:01Z</time>
      </trkpt>
      <trkpt lat="43.52059" lon="6.14726">
        <ele>342.3</ele>
        <time>2012-11-02T08:14:35Z</time>
      </trkpt>
      <trkpt lat="43.52059" lon="6.14725">
        <ele>342.6</ele>
        <time>2012-11-02T08:14:36Z</time>
      </trkpt>
      <trkpt lat="43.5205" lon="6.14705">
        <ele>349.3</ele>
        <time>2012-11-02T08:15:16Z</time>
      </trkpt>
      <trkpt lat="43.52042" lon="6.14709">
        <ele>349.4</ele>
        <time>2012-11-02T08:15:36Z</time>
      </trkpt>
      <trkpt lat="43.52041" lon="6.14709">
        <ele>349.4</ele>
        <time>2012-11-02T08:15:37Z</time>
      </trkpt>
      <trkpt lat="43.52033" lon="6.14702">
        <ele>349.2</ele>
        <time>2012-11-02T08:17:41Z</time>
      </trkpt>
      <trkpt lat="43.52033" lon="6.14701">
        <ele>349.3</ele>
        <time>2012-11-02T08:17:42Z</time>
      </trkpt>
      <trkpt lat="43.52019" lon="6.147">
        <ele>350</ele>
        <time>2012-11-02T08:18:20Z</time>
      </trkpt>
      <trkpt lat="43.52008" lon="6.14703">
        <ele>350</ele>
        <time>2012-11-02T08:18:50Z</time>
      </trkpt>
      <trkpt lat="43.52037" lon="6.14664">
        <ele>350.2</ele>
        <time>2012-11-02T08:19:04Z</time>
      </trkpt>
      <trkpt lat="43.52029" lon="6.14685">
        <ele>349</ele>
        <time>2012-11-02T08:20:38Z</time>
      </trkpt>
      <trkpt lat="43.52022" lon="6.1469">
        <ele>349.5</ele>
        <time>2012-11-02T08:20:57Z</time>
      </trkpt>
      <trkpt lat="43.5202" lon="6.14678">
        <ele>349.1</ele>
        <time>2012-11-02T08:21:12Z</time>
      </trkpt>
      <trkpt lat="43.52018" lon="6.14667">
        <ele>349</ele>
        <time>2012-11-02T08:21:25Z</time>
      </trkpt>
      <trkpt lat="43.52012" lon="6.14657">
        <ele>348.7</ele>
        <time>2012-11-02T08:21:58Z</time>
      </trkpt>
      <trkpt lat="43.52012" lon="6.14657">
        <ele>348.7</ele>
        <time>2012-11-02T08:21:59Z</time>
      </trkpt>
      <trkpt lat="43.52021" lon="6.14676">
        <ele>349.5</ele>
        <time>2012-11-02T08:22:46Z</time>
      </trkpt>
      <trkpt lat="43.52024" lon="6.14686">
        <ele>348.9</ele>
        <time>2012-11-02T08:22:57Z</time>
      </trkpt>
      <trkpt lat="43.52028" lon="6.14696">
        <ele>349</ele>
        <time>2012-11-02T08:23:08Z</time>
      </trkpt>
      <trkpt lat="43.52029" lon="6.14697">
        <ele>349</ele>
        <time>2012-11-02T08:23:09Z</time>
      </trkpt>
      <trkpt lat="43.52045" lon="6.14699">
        <ele>349.1</ele>
        <time>2012-11-02T08:23:47Z</time>
      </trkpt>
      <trkpt lat="43.52051" lon="6.14691">
        <ele>350</ele>
        <time>2012-11-02T08:24:04Z</time>
      </trkpt>
      <trkpt lat="43.52045" lon="6.14678">
        <ele>347</ele>
        <time>2012-11-02T08:24:53Z</time>
      </trkpt>
      <trkpt lat="43.52054" lon="6.1468">
        <ele>348.1</ele>
        <time>2012-11-02T08:25:04Z</time>
      </trkpt>
      <trkpt lat="43.52059" lon="6.1467">
        <ele>352.1</ele>
        <time>2012-11-02T08:25:56Z</time>
      </trkpt>
      <trkpt lat="43.52065" lon="6.14661">
        <ele>351.8</ele>
        <time>2012-11-02T08:26:26Z</time>
      </trkpt>
      <trkpt lat="43.52065" lon="6.14661">
        <ele>352.1</ele>
        <time>2012-11-02T08:26:27Z</time>
      </trkpt>
      <trkpt lat="43.52073" lon="6.14656">
        <ele>351.8</ele>
        <time>2012-11-02T08:28:38Z</time>
      </trkpt>
      <trkpt lat="43.5208" lon="6.14648">
        <ele>351.4</ele>
        <time>2012-11-02T08:30:37Z</time>
      </trkpt>
      <trkpt lat="43.52096" lon="6.14639">
        <ele>351.1</ele>
        <time>2012-11-02T08:31:09Z</time>
      </trkpt>
      <trkpt lat="43.52104" lon="6.14634">
        <ele>350.7</ele>
        <time>2012-11-02T08:31:22Z</time>
      </trkpt>
      <trkpt lat="43.52112" lon="6.14632">
        <ele>350.2</ele>
        <time>2012-11-02T08:31:34Z</time>
      </trkpt>
      <trkpt lat="43.5212" lon="6.14628">
        <ele>350</ele>
        <time>2012-11-02T08:31:47Z</time>
      </trkpt>
      <trkpt lat="43.5212" lon="6.14628">
        <ele>350</ele>
        <time>2012-11-02T08:31:48Z</time>
      </trkpt>
      <trkpt lat="43.52136" lon="6.14621">
        <ele>347.7</ele>
        <time>2012-11-02T08:32:10Z</time>
      </trkpt>
      <trkpt lat="43.52144" lon="6.14618">
        <ele>348.4</ele>
        <time>2012-11-02T08:32:20Z</time>
      </trkpt>
      <trkpt lat="43.52152" lon="6.14613">
        <ele>348.1</ele>
        <time>2012-11-02T08:32:31Z</time>
      </trkpt>
      <trkpt lat="43.52159" lon="6.14607">
        <ele>347.5</ele>
        <time>2012-11-02T08:32:41Z</time>
      </trkpt>
      <trkpt lat="43.52167" lon="6.146">
        <ele>349</ele>
        <time>2012-11-02T08:32:54Z</time>
      </trkpt>
      <trkpt lat="43.52168" lon="6.146">
        <ele>348.8</ele>
        <time>2012-11-02T08:32:55Z</time>
      </trkpt>
      <trkpt lat="43.52183" lon="6.14592">
        <ele>350</ele>
        <time>2012-11-02T08:33:16Z</time>
      </trkpt>
      <trkpt lat="43.52191" lon="6.14586">
        <ele>349.9</ele>
        <time>2012-11-02T08:33:27Z</time>
      </trkpt>
      <trkpt lat="43.52198" lon="6.1458">
        <ele>349.6</ele>
        <time>2012-11-02T08:33:37Z</time>
      </trkpt>
      <trkpt lat="43.52206" lon="6.14578">
        <ele>349.7</ele>
        <time>2012-11-02T08:33:50Z</time>
      </trkpt>
      <trkpt lat="43.52213" lon="6.14583">
        <ele>350.1</ele>
        <time>2012-11-02T08:34:13Z</time>
      </trkpt>
      <trkpt lat="43.52214" lon="6.14582">
        <ele>350.4</ele>
        <time>2012-11-02T08:34:14Z</time>
      </trkpt>
      <trkpt lat="43.52219" lon="6.14562">
        <ele>349.8</ele>
        <time>2012-11-02T08:34:59Z</time>
      </trkpt>
      <trkpt lat="43.52226" lon="6.14557">
        <ele>349.7</ele>
        <time>2012-11-02T08:35:06Z</time>
      </trkpt>
      <trkpt lat="43.52234" lon="6.14553">
        <ele>349</ele>
        <time>2012-11-02T08:35:13Z</time>
      </trkpt>
      <trkpt lat="43.52242" lon="6.14552">
        <ele>347.5</ele>
        <time>2012-11-02T08:35:21Z</time>
      </trkpt>
      <trkpt lat="43.52243" lon="6.14551">
        <ele>347.3</ele>
        <time>2012-11-02T08:35:22Z</time>
      </trkpt>
      <trkpt lat="43.52255" lon="6.14537">
        <ele>344.6</ele>
        <time>2012-11-02T08:35:38Z</time>
      </trkpt>
      <trkpt lat="43.52261" lon="6.14528">
        <ele>345.7</ele>
        <time>2012-11-02T08:35:46Z</time>
      </trkpt>
      <trkpt lat="43.52266" lon="6.14518">
        <ele>344.5</ele>
        <time>2012-11-02T08:35:55Z</time>
      </trkpt>
      <trkpt lat="43.52271" lon="6.14508">
        <ele>343.1</ele>
        <time>2012-11-02T08:36:04Z</time>
      </trkpt>
      <trkpt lat="43.52274" lon="6.14497">
        <ele>341.2</ele>
        <time>2012-11-02T08:36:16Z</time>
      </trkpt>
      <trkpt lat="43.52281" lon="6.14489">
        <ele>340.8</ele>
        <time>2012-11-02T08:36:28Z</time>
      </trkpt>
      <trkpt lat="43.52281" lon="6.14488">
        <ele>340.8</ele>
        <time>2012-11-02T08:36:29Z</time>
      </trkpt>
      <trkpt lat="43.52294" lon="6.14475">
        <ele>339.7</ele>
        <time>2012-11-02T08:36:58Z</time>
      </trkpt>
      <trkpt lat="43.523" lon="6.14466">
        <ele>340</ele>
        <time>2012-11-02T08:37:08Z</time>
      </trkpt>
      <trkpt lat="43.52307" lon="6.14459">
        <ele>339.5</ele>
        <time>2012-11-02T08:37:19Z</time>
      </trkpt>
      <trkpt lat="43.52315" lon="6.14454">
        <ele>339.8</ele>
        <time>2012-11-02T08:37:28Z</time>
      </trkpt>
      <trkpt lat="43.52322" lon="6.14446">
        <ele>340.3</ele>
        <time>2012-11-02T08:37:37Z</time>
      </trkpt>
      <trkpt lat="43.52322" lon="6.14445">
        <ele>340.3</ele>
        <time>2012-11-02T08:37:38Z</time>
      </trkpt>
      <trkpt lat="43.52334" lon="6.14429">
        <ele>340.6</ele>
        <time>2012-11-02T08:37:58Z</time>
      </trkpt>
      <trkpt lat="43.52339" lon="6.14421">
        <ele>341.3</ele>
        <time>2012-11-02T08:38:09Z</time>
      </trkpt>
      <trkpt lat="43.52345" lon="6.14412">
        <ele>341.8</ele>
        <time>2012-11-02T08:38:21Z</time>
      </trkpt>
      <trkpt lat="43.52351" lon="6.14404">
        <ele>341.6</ele>
        <time>2012-11-02T08:38:32Z</time>
      </trkpt>
      <trkpt lat="43.52358" lon="6.14397">
        <ele>341.5</ele>
        <time>2012-11-02T08:38:40Z</time>
      </trkpt>
      <trkpt lat="43.52359" lon="6.14396">
        <ele>341.6</ele>
        <time>2012-11-02T08:38:41Z</time>
      </trkpt>
      <trkpt lat="43.52367" lon="6.14376">
        <ele>342.7</ele>
        <time>2012-11-02T08:39:03Z</time>
      </trkpt>
      <trkpt lat="43.52369" lon="6.14365">
        <ele>343.4</ele>
        <time>2012-11-02T08:39:14Z</time>
      </trkpt>
      <trkpt lat="43.5237" lon="6.14353">
        <ele>342.7</ele>
        <time>2012-11-02T08:39:26Z</time>
      </trkpt>
      <trkpt lat="43.52374" lon="6.14342">
        <ele>342.4</ele>
        <time>2012-11-02T08:39:38Z</time>
      </trkpt>
      <trkpt lat="43.52379" lon="6.14333">
        <ele>342.3</ele>
        <time>2012-11-02T08:39:51Z</time>
      </trkpt>
      <trkpt lat="43.5238" lon="6.14333">
        <ele>342.1</ele>
        <time>2012-11-02T08:39:52Z</time>
      </trkpt>
      <trkpt lat="43.52389" lon="6.14314">
        <ele>341</ele>
        <time>2012-11-02T08:40:16Z</time>
      </trkpt>
      <trkpt lat="43.52394" lon="6.14304">
        <ele>340.9</ele>
        <time>2012-11-02T08:40:26Z</time>
      </trkpt>
      <trkpt lat="43.52399" lon="6.14295">
        <ele>340.6</ele>
        <time>2012-11-02T08:40:35Z</time>
      </trkpt>
      <trkpt lat="43.52404" lon="6.14285">
        <ele>340.9</ele>
        <time>2012-11-02T08:40:45Z</time>
      </trkpt>
      <trkpt lat="43.52407" lon="6.14275">
        <ele>340.7</ele>
        <time>2012-11-02T08:40:55Z</time>
      </trkpt>
      <trkpt lat="43.52408" lon="6.14274">
        <ele>340.6</ele>
        <time>2012-11-02T08:40:56Z</time>
      </trkpt>
      <trkpt lat="43.52417" lon="6.14255">
        <ele>341.1</ele>
        <time>2012-11-02T08:41:17Z</time>
      </trkpt>
      <trkpt lat="43.52421" lon="6.14245">
        <ele>340.9</ele>
        <time>2012-11-02T08:41:27Z</time>
      </trkpt>
      <trkpt lat="43.52425" lon="6.14235">
        <ele>341.2</ele>
        <time>2012-11-02T08:41:37Z</time>
      </trkpt>
      <trkpt lat="43.52428" lon="6.14224">
        <ele>341.7</ele>
        <time>2012-11-02T08:41:47Z</time>
      </trkpt>
      <trkpt lat="43.5243" lon="6.14212">
        <ele>341.9</ele>
        <time>2012-11-02T08:41:58Z</time>
      </trkpt>
      <trkpt lat="43.5243" lon="6.14211">
        <ele>341.8</ele>
        <time>2012-11-02T08:41:59Z</time>
      </trkpt>
      <trkpt lat="43.52431" lon="6.14189">
        <ele>342.8</ele>
        <time>2012-11-02T08:42:22Z</time>
      </trkpt>
      <trkpt lat="43.52432" lon="6.14177">
        <ele>343.1</ele>
        <time>2012-11-02T08:42:30Z</time>
      </trkpt>
      <trkpt lat="43.52429" lon="6.14166">
        <ele>343.9</ele>
        <time>2012-11-02T08:42:40Z</time>
      </trkpt>
      <trkpt lat="43.52426" lon="6.14155">
        <ele>344.2</ele>
        <time>2012-11-02T08:42:51Z</time>
      </trkpt>
      <trkpt lat="43.52423" lon="6.14143">
        <ele>344.9</ele>
        <time>2012-11-02T08:43:03Z</time>
      </trkpt>
      <trkpt lat="43.52423" lon="6.14142">
        <ele>345.2</ele>
        <time>2012-11-02T08:43:04Z</time>
      </trkpt>
      <trkpt lat="43.52422" lon="6.14119">
        <ele>346</ele>
        <time>2012-11-02T08:43:28Z</time>
      </trkpt>
      <trkpt lat="43.52421" lon="6.14107">
        <ele>346.5</ele>
        <time>2012-11-02T08:43:45Z</time>
      </trkpt>
      <trkpt lat="43.52418" lon="6.14096">
        <ele>346.9</ele>
        <time>2012-11-02T08:43:58Z</time>
      </trkpt>
      <trkpt lat="43.52416" lon="6.14084">
        <ele>347.1</ele>
        <time>2012-11-02T08:44:12Z</time>
      </trkpt>
      <trkpt lat="43.52416" lon="6.14083">
        <ele>347.1</ele>
        <time>2012-11-02T08:44:13Z</time>
      </trkpt>
      <trkpt lat="43.5242" lon="6.14061">
        <ele>346.9</ele>
        <time>2012-11-02T08:44:41Z</time>
      </trkpt>
      <trkpt lat="43.52427" lon="6.14053">
        <ele>348.8</ele>
        <time>2012-11-02T08:45:00Z</time>
      </trkpt>
      <trkpt lat="43.52434" lon="6.14047">
        <ele>350.8</ele>
        <time>2012-11-02T08:45:15Z</time>
      </trkpt>
      <trkpt lat="43.52435" lon="6.14046">
        <ele>351</ele>
        <time>2012-11-02T08:45:16Z</time>
      </trkpt>
      <trkpt lat="43.52447" lon="6.1403">
        <ele>352.6</ele>
        <time>2012-11-02T08:45:51Z</time>
      </trkpt>
      <trkpt lat="43.52454" lon="6.14025">
        <ele>352.6</ele>
        <time>2012-11-02T08:48:31Z</time>
      </trkpt>
      <trkpt lat="43.52455" lon="6.14024">
        <ele>352.9</ele>
        <time>2012-11-02T08:48:32Z</time>
      </trkpt>
      <trkpt lat="43.52462" lon="6.14003">
        <ele>352.5</ele>
        <time>2012-11-02T08:48:53Z</time>
      </trkpt>
      <trkpt lat="43.52464" lon="6.13991">
        <ele>352.5</ele>
        <time>2012-11-02T08:49:03Z</time>
      </trkpt>
      <trkpt lat="43.52466" lon="6.1398">
        <ele>352.6</ele>
        <time>2012-11-02T08:49:13Z</time>
      </trkpt>
      <trkpt lat="43.52469" lon="6.1397">
        <ele>353.6</ele>
        <time>2012-11-02T08:49:22Z</time>
      </trkpt>
      <trkpt lat="43.52473" lon="6.13959">
        <ele>353.8</ele>
        <time>2012-11-02T08:49:32Z</time>
      </trkpt>
      <trkpt lat="43.52473" lon="6.13958">
        <ele>353.8</ele>
        <time>2012-11-02T08:49:33Z</time>
      </trkpt>
      <trkpt lat="43.52482" lon="6.13938">
        <ele>354</ele>
        <time>2012-11-02T08:49:53Z</time>
      </trkpt>
      <trkpt lat="43.52486" lon="6.13929">
        <ele>354.5</ele>
        <time>2012-11-02T08:50:03Z</time>
      </trkpt>
      <trkpt lat="43.52492" lon="6.13919">
        <ele>355.1</ele>
        <time>2012-11-02T08:50:14Z</time>
      </trkpt>
      <trkpt lat="43.52498" lon="6.13911">
        <ele>356.7</ele>
        <time>2012-11-02T08:50:24Z</time>
      </trkpt>
      <trkpt lat="43.52503" lon="6.13901">
        <ele>357.2</ele>
        <time>2012-11-02T08:50:35Z</time>
      </trkpt>
      <trkpt lat="43.52504" lon="6.13901">
        <ele>357.6</ele>
        <time>2012-11-02T08:50:36Z</time>
      </trkpt>
      <trkpt lat="43.52516" lon="6.13885">
        <ele>358.9</ele>
        <time>2012-11-02T08:50:58Z</time>
      </trkpt>
      <trkpt lat="43.52522" lon="6.13877">
        <ele>359.7</ele>
        <time>2012-11-02T08:51:08Z</time>
      </trkpt>
      <trkpt lat="43.52529" lon="6.13869">
        <ele>361</ele>
        <time>2012-11-02T08:51:20Z</time>
      </trkpt>
      <trkpt lat="43.52536" lon="6.13861">
        <ele>362.3</ele>
        <time>2012-11-02T08:51:32Z</time>
      </trkpt>
      <trkpt lat="43.52542" lon="6.13852">
        <ele>363.1</ele>
        <time>2012-11-02T08:51:46Z</time>
      </trkpt>
      <trkpt lat="43.52543" lon="6.13852">
        <ele>363.2</ele>
        <time>2012-11-02T08:51:47Z</time>
      </trkpt>
      <trkpt lat="43.52544" lon="6.13828">
        <ele>367.5</ele>
        <time>2012-11-02T08:52:17Z</time>
      </trkpt>
      <trkpt lat="43.52547" lon="6.13817">
        <ele>369.1</ele>
        <time>2012-11-02T08:52:31Z</time>
      </trkpt>
      <trkpt lat="43.52552" lon="6.13807">
        <ele>369.8</ele>
        <time>2012-11-02T08:52:46Z</time>
      </trkpt>
      <trkpt lat="43.52556" lon="6.13796">
        <ele>370.9</ele>
        <time>2012-11-02T08:53:09Z</time>
      </trkpt>
      <trkpt lat="43.52556" lon="6.13796">
        <ele>370.8</ele>
        <time>2012-11-02T08:53:10Z</time>
      </trkpt>
      <trkpt lat="43.52556" lon="6.13783">
        <ele>371.3</ele>
        <time>2012-11-02T08:54:16Z</time>
      </trkpt>
      <trkpt lat="43.52557" lon="6.1376">
        <ele>373.1</ele>
        <time>2012-11-02T08:54:49Z</time>
      </trkpt>
      <trkpt lat="43.52559" lon="6.13749">
        <ele>373.5</ele>
        <time>2012-11-02T08:55:01Z</time>
      </trkpt>
      <trkpt lat="43.52561" lon="6.13737">
        <ele>375.7</ele>
        <time>2012-11-02T08:55:21Z</time>
      </trkpt>
      <trkpt lat="43.52561" lon="6.13737">
        <ele>375.7</ele>
        <time>2012-11-02T08:55:22Z</time>
      </trkpt>
      <trkpt lat="43.5257" lon="6.13717">
        <ele>380.1</ele>
        <time>2012-11-02T08:55:50Z</time>
      </trkpt>
      <trkpt lat="43.52574" lon="6.13707">
        <ele>381.1</ele>
        <time>2012-11-02T08:56:03Z</time>
      </trkpt>
      <trkpt lat="43.5258" lon="6.13698">
        <ele>382.5</ele>
        <time>2012-11-02T08:56:14Z</time>
      </trkpt>
      <trkpt lat="43.52585" lon="6.13689">
        <ele>384.5</ele>
        <time>2012-11-02T08:56:26Z</time>
      </trkpt>
      <trkpt lat="43.52585" lon="6.13688">
        <ele>384.8</ele>
        <time>2012-11-02T08:56:27Z</time>
      </trkpt>
      <trkpt lat="43.52599" lon="6.13674">
        <ele>388.6</ele>
        <time>2012-11-02T08:56:54Z</time>
      </trkpt>
      <trkpt lat="43.52604" lon="6.13665">
        <ele>390.4</ele>
        <time>2012-11-02T08:57:06Z</time>
      </trkpt>
      <trkpt lat="43.5261" lon="6.13655">
        <ele>391.7</ele>
        <time>2012-11-02T08:57:19Z</time>
      </trkpt>
      <trkpt lat="43.52613" lon="6.13644">
        <ele>392.3</ele>
        <time>2012-11-02T08:59:45Z</time>
      </trkpt>
      <trkpt lat="43.52613" lon="6.13644">
        <ele>392.4</ele>
        <time>2012-11-02T08:59:46Z</time>
      </trkpt>
      <trkpt lat="43.52621" lon="6.13637">
        <ele>392.2</ele>
        <time>2012-11-02T09:02:12Z</time>
      </trkpt>
      <trkpt lat="43.52633" lon="6.13621">
        <ele>390.4</ele>
        <time>2012-11-02T09:02:37Z</time>
      </trkpt>
      <trkpt lat="43.5264" lon="6.13614">
        <ele>390.2</ele>
        <time>2012-11-02T09:02:49Z</time>
      </trkpt>
      <trkpt lat="43.52647" lon="6.13608">
        <ele>390</ele>
        <time>2012-11-02T09:03:00Z</time>
      </trkpt>
      <trkpt lat="43.52655" lon="6.13602">
        <ele>390.2</ele>
        <time>2012-11-02T09:03:12Z</time>
      </trkpt>
      <trkpt lat="43.52656" lon="6.13602">
        <ele>390</ele>
        <time>2012-11-02T09:03:13Z</time>
      </trkpt>
      <trkpt lat="43.5267" lon="6.13591">
        <ele>391.9</ele>
        <time>2012-11-02T09:03:32Z</time>
      </trkpt>
      <trkpt lat="43.52677" lon="6.13585">
        <ele>391.3</ele>
        <time>2012-11-02T09:03:41Z</time>
      </trkpt>
      <trkpt lat="43.52684" lon="6.13577">
        <ele>391.1</ele>
        <time>2012-11-02T09:03:51Z</time>
      </trkpt>
      <trkpt lat="43.52687" lon="6.13566">
        <ele>391.8</ele>
        <time>2012-11-02T09:04:03Z</time>
      </trkpt>
      <trkpt lat="43.52692" lon="6.13556">
        <ele>392.5</ele>
        <time>2012-11-02T09:04:14Z</time>
      </trkpt>
      <trkpt lat="43.52692" lon="6.13555">
        <ele>392.5</ele>
        <time>2012-11-02T09:04:15Z</time>
      </trkpt>
      <trkpt lat="43.52702" lon="6.13537">
        <ele>394.1</ele>
        <time>2012-11-02T09:04:35Z</time>
      </trkpt>
      <trkpt lat="43.52708" lon="6.13528">
        <ele>394.6</ele>
        <time>2012-11-02T09:04:44Z</time>
      </trkpt>
      <trkpt lat="43.52713" lon="6.13519">
        <ele>395.2</ele>
        <time>2012-11-02T09:04:53Z</time>
      </trkpt>
      <trkpt lat="43.52717" lon="6.13508">
        <ele>395.2</ele>
        <time>2012-11-02T09:05:04Z</time>
      </trkpt>
      <trkpt lat="43.5272" lon="6.13497">
        <ele>395.9</ele>
        <time>2012-11-02T09:05:15Z</time>
      </trkpt>
      <trkpt lat="43.52722" lon="6.13485">
        <ele>396.2</ele>
        <time>2012-11-02T09:05:25Z</time>
      </trkpt>
      <trkpt lat="43.52723" lon="6.13484">
        <ele>396.3</ele>
        <time>2012-11-02T09:05:26Z</time>
      </trkpt>
      <trkpt lat="43.52728" lon="6.13462">
        <ele>397.2</ele>
        <time>2012-11-02T09:05:58Z</time>
      </trkpt>
      <trkpt lat="43.52731" lon="6.13451">
        <ele>396.8</ele>
        <time>2012-11-02T09:06:15Z</time>
      </trkpt>
      <trkpt lat="43.52732" lon="6.13439">
        <ele>397.1</ele>
        <time>2012-11-02T09:06:28Z</time>
      </trkpt>
      <trkpt lat="43.52732" lon="6.13438">
        <ele>397.1</ele>
        <time>2012-11-02T09:06:29Z</time>
      </trkpt>
      <trkpt lat="43.52738" lon="6.13417">
        <ele>397.8</ele>
        <time>2012-11-02T09:06:53Z</time>
      </trkpt>
      <trkpt lat="43.52743" lon="6.13407">
        <ele>398.8</ele>
        <time>2012-11-02T09:07:04Z</time>
      </trkpt>
      <trkpt lat="43.52749" lon="6.13399">
        <ele>400.1</ele>
        <time>2012-11-02T09:07:15Z</time>
      </trkpt>
      <trkpt lat="43.52756" lon="6.13392">
        <ele>401</ele>
        <time>2012-11-02T09:07:26Z</time>
      </trkpt>
      <trkpt lat="43.52763" lon="6.13385">
        <ele>401.1</ele>
        <time>2012-11-02T09:07:38Z</time>
      </trkpt>
      <trkpt lat="43.52764" lon="6.13385">
        <ele>401.1</ele>
        <time>2012-11-02T09:07:39Z</time>
      </trkpt>
      <trkpt lat="43.52779" lon="6.13375">
        <ele>400.2</ele>
        <time>2012-11-02T09:08:02Z</time>
      </trkpt>
      <trkpt lat="43.52787" lon="6.1337">
        <ele>400</ele>
        <time>2012-11-02T09:08:14Z</time>
      </trkpt>
      <trkpt lat="43.52794" lon="6.13365">
        <ele>400.2</ele>
        <time>2012-11-02T09:08:25Z</time>
      </trkpt>
      <trkpt lat="43.52803" lon="6.13361">
        <ele>400.5</ele>
        <time>2012-11-02T09:08:35Z</time>
      </trkpt>
      <trkpt lat="43.52811" lon="6.13358">
        <ele>399.3</ele>
        <time>2012-11-02T09:08:46Z</time>
      </trkpt>
      <trkpt lat="43.52812" lon="6.13358">
        <ele>399.3</ele>
        <time>2012-11-02T09:08:47Z</time>
      </trkpt>
      <trkpt lat="43.52827" lon="6.13351">
        <ele>398.8</ele>
        <time>2012-11-02T09:09:35Z</time>
      </trkpt>
      <trkpt lat="43.52835" lon="6.13346">
        <ele>398.2</ele>
        <time>2012-11-02T09:09:47Z</time>
      </trkpt>
      <trkpt lat="43.52836" lon="6.13345">
        <ele>398.6</ele>
        <time>2012-11-02T09:09:48Z</time>
      </trkpt>
      <trkpt lat="43.52852" lon="6.13341">
        <ele>396.5</ele>
        <time>2012-11-02T09:10:13Z</time>
      </trkpt>
      <trkpt lat="43.52861" lon="6.13339">
        <ele>396.8</ele>
        <time>2012-11-02T09:10:35Z</time>
      </trkpt>
      <trkpt lat="43.52869" lon="6.13339">
        <ele>396.7</ele>
        <time>2012-11-02T09:10:55Z</time>
      </trkpt>
      <trkpt lat="43.5287" lon="6.13339">
        <ele>396.7</ele>
        <time>2012-11-02T09:10:56Z</time>
      </trkpt>
      <trkpt lat="43.52885" lon="6.1335">
        <ele>397.6</ele>
        <time>2012-11-02T09:12:44Z</time>
      </trkpt>
      <trkpt lat="43.52886" lon="6.13351">
        <ele>397.5</ele>
        <time>2012-11-02T09:12:45Z</time>
      </trkpt>
      <trkpt lat="43.52898" lon="6.13365">
        <ele>398.5</ele>
        <time>2012-11-02T09:13:09Z</time>
      </trkpt>
      <trkpt lat="43.52905" lon="6.13374">
        <ele>399.3</ele>
        <time>2012-11-02T09:13:21Z</time>
      </trkpt>
      <trkpt lat="43.52911" lon="6.13381">
        <ele>399.5</ele>
        <time>2012-11-02T09:13:32Z</time>
      </trkpt>
      <trkpt lat="43.52918" lon="6.13388">
        <ele>400.1</ele>
        <time>2012-11-02T09:13:46Z</time>
      </trkpt>
      <trkpt lat="43.52919" lon="6.13388">
        <ele>400.4</ele>
        <time>2012-11-02T09:13:47Z</time>
      </trkpt>
      <trkpt lat="43.52932" lon="6.13401">
        <ele>399.5</ele>
        <time>2012-11-02T09:14:07Z</time>
      </trkpt>
      <trkpt lat="43.52936" lon="6.13411">
        <ele>399.7</ele>
        <time>2012-11-02T09:14:15Z</time>
      </trkpt>
      <trkpt lat="43.52942" lon="6.1342">
        <ele>399.9</ele>
        <time>2012-11-02T09:14:23Z</time>
      </trkpt>
      <trkpt lat="43.52946" lon="6.13431">
        <ele>399.3</ele>
        <time>2012-11-02T09:14:32Z</time>
      </trkpt>
      <trkpt lat="43.5295" lon="6.13441">
        <ele>399.7</ele>
        <time>2012-11-02T09:14:40Z</time>
      </trkpt>
      <trkpt lat="43.52953" lon="6.13451">
        <ele>399.6</ele>
        <time>2012-11-02T09:14:49Z</time>
      </trkpt>
      <trkpt lat="43.52954" lon="6.13452">
        <ele>399.4</ele>
        <time>2012-11-02T09:14:50Z</time>
      </trkpt>
      <trkpt lat="43.52962" lon="6.13472">
        <ele>399.4</ele>
        <time>2012-11-02T09:15:07Z</time>
      </trkpt>
      <trkpt lat="43.52966" lon="6.13482">
        <ele>399.5</ele>
        <time>2012-11-02T09:15:16Z</time>
      </trkpt>
      <trkpt lat="43.52971" lon="6.13491">
        <ele>398.4</ele>
        <time>2012-11-02T09:15:25Z</time>
      </trkpt>
      <trkpt lat="43.52976" lon="6.13501">
        <ele>397.9</ele>
        <time>2012-11-02T09:15:33Z</time>
      </trkpt>
      <trkpt lat="43.5298" lon="6.1351">
        <ele>397.5</ele>
        <time>2012-11-02T09:15:41Z</time>
      </trkpt>
      <trkpt lat="43.52985" lon="6.1352">
        <ele>397.7</ele>
        <time>2012-11-02T09:15:50Z</time>
      </trkpt>
      <trkpt lat="43.52991" lon="6.13529">
        <ele>396.8</ele>
        <time>2012-11-02T09:16:01Z</time>
      </trkpt>
      <trkpt lat="43.52992" lon="6.1353">
        <ele>396.8</ele>
        <time>2012-11-02T09:16:02Z</time>
      </trkpt>
      <trkpt lat="43.53005" lon="6.13544">
        <ele>396.4</ele>
        <time>2012-11-02T09:16:23Z</time>
      </trkpt>
      <trkpt lat="43.53012" lon="6.1355">
        <ele>396.6</ele>
        <time>2012-11-02T09:16:31Z</time>
      </trkpt>
      <trkpt lat="43.53019" lon="6.13557">
        <ele>395.8</ele>
        <time>2012-11-02T09:16:40Z</time>
      </trkpt>
      <trkpt lat="43.53026" lon="6.13564">
        <ele>396.2</ele>
        <time>2012-11-02T09:16:51Z</time>
      </trkpt>
      <trkpt lat="43.53033" lon="6.1357">
        <ele>395.9</ele>
        <time>2012-11-02T09:17:01Z</time>
      </trkpt>
      <trkpt lat="43.53041" lon="6.13577">
        <ele>396.2</ele>
        <time>2012-11-02T09:17:09Z</time>
      </trkpt>
      <trkpt lat="43.53042" lon="6.13578">
        <ele>396.4</ele>
        <time>2012-11-02T09:17:10Z</time>
      </trkpt>
      <trkpt lat="43.53055" lon="6.13591">
        <ele>396.4</ele>
        <time>2012-11-02T09:17:25Z</time>
      </trkpt>
      <trkpt lat="43.53061" lon="6.13598">
        <ele>396.1</ele>
        <time>2012-11-02T09:17:33Z</time>
      </trkpt>
      <trkpt lat="43.53068" lon="6.13606">
        <ele>396.8</ele>
        <time>2012-11-02T09:17:42Z</time>
      </trkpt>
      <trkpt lat="43.53074" lon="6.13615">
        <ele>396.7</ele>
        <time>2012-11-02T09:17:51Z</time>
      </trkpt>
      <trkpt lat="43.5308" lon="6.13623">
        <ele>397.2</ele>
        <time>2012-11-02T09:18:01Z</time>
      </trkpt>
      <trkpt lat="43.53087" lon="6.13631">
        <ele>397.4</ele>
        <time>2012-11-02T09:18:11Z</time>
      </trkpt>
      <trkpt lat="43.53087" lon="6.13632">
        <ele>397.3</ele>
        <time>2012-11-02T09:18:12Z</time>
      </trkpt>
      <trkpt lat="43.531" lon="6.13645">
        <ele>398.6</ele>
        <time>2012-11-02T09:18:31Z</time>
      </trkpt>
      <trkpt lat="43.53107" lon="6.13652">
        <ele>398.9</ele>
        <time>2012-11-02T09:18:43Z</time>
      </trkpt>
      <trkpt lat="43.53113" lon="6.13661">
        <ele>398.9</ele>
        <time>2012-11-02T09:18:54Z</time>
      </trkpt>
      <trkpt lat="43.53119" lon="6.1367">
        <ele>398.9</ele>
        <time>2012-11-02T09:19:04Z</time>
      </trkpt>
      <trkpt lat="43.53125" lon="6.13678">
        <ele>400.1</ele>
        <time>2012-11-02T09:19:14Z</time>
      </trkpt>
      <trkpt lat="43.53125" lon="6.13679">
        <ele>400</ele>
        <time>2012-11-02T09:19:15Z</time>
      </trkpt>
      <trkpt lat="43.53139" lon="6.1369">
        <ele>400.2</ele>
        <time>2012-11-02T09:19:32Z</time>
      </trkpt>
      <trkpt lat="43.53146" lon="6.13697">
        <ele>399.4</ele>
        <time>2012-11-02T09:19:41Z</time>
      </trkpt>
      <trkpt lat="43.53154" lon="6.13703">
        <ele>399</ele>
        <time>2012-11-02T09:19:51Z</time>
      </trkpt>
      <trkpt lat="43.5316" lon="6.1371">
        <ele>397.5</ele>
        <time>2012-11-02T09:20:00Z</time>
      </trkpt>
      <trkpt lat="43.53167" lon="6.13716">
        <ele>397</ele>
        <time>2012-11-02T09:20:09Z</time>
      </trkpt>
      <trkpt lat="43.53174" lon="6.13723">
        <ele>396.7</ele>
        <time>2012-11-02T09:20:19Z</time>
      </trkpt>
      <trkpt lat="43.53175" lon="6.13724">
        <ele>396.7</ele>
        <time>2012-11-02T09:20:20Z</time>
      </trkpt>
      <trkpt lat="43.53186" lon="6.1374">
        <ele>395.6</ele>
        <time>2012-11-02T09:20:37Z</time>
      </trkpt>
      <trkpt lat="43.53192" lon="6.13748">
        <ele>395.7</ele>
        <time>2012-11-02T09:20:46Z</time>
      </trkpt>
      <trkpt lat="43.53199" lon="6.13755">
        <ele>395.8</ele>
        <time>2012-11-02T09:20:56Z</time>
      </trkpt>
      <trkpt lat="43.53205" lon="6.13761">
        <ele>395.7</ele>
        <time>2012-11-02T09:21:06Z</time>
      </trkpt>
      <trkpt lat="43.53212" lon="6.13769">
        <ele>395.3</ele>
        <time>2012-11-02T09:21:14Z</time>
      </trkpt>
      <trkpt lat="43.53218" lon="6.13776">
        <ele>395.5</ele>
        <time>2012-11-02T09:21:23Z</time>
      </trkpt>
      <trkpt lat="43.53219" lon="6.13777">
        <ele>395.6</ele>
        <time>2012-11-02T09:21:24Z</time>
      </trkpt>
      <trkpt lat="43.53231" lon="6.13791">
        <ele>395.1</ele>
        <time>2012-11-02T09:21:39Z</time>
      </trkpt>
      <trkpt lat="43.53237" lon="6.13797">
        <ele>395.2</ele>
        <time>2012-11-02T09:21:47Z</time>
      </trkpt>
      <trkpt lat="43.53244" lon="6.13804">
        <ele>394.5</ele>
        <time>2012-11-02T09:21:55Z</time>
      </trkpt>
      <trkpt lat="43.5325" lon="6.13812">
        <ele>395.1</ele>
        <time>2012-11-02T09:22:03Z</time>
      </trkpt>
      <trkpt lat="43.53255" lon="6.1382">
        <ele>395</ele>
        <time>2012-11-02T09:22:11Z</time>
      </trkpt>
      <trkpt lat="43.53261" lon="6.13829">
        <ele>395.7</ele>
        <time>2012-11-02T09:22:20Z</time>
      </trkpt>
      <trkpt lat="43.53267" lon="6.13837">
        <ele>395.7</ele>
        <time>2012-11-02T09:22:29Z</time>
      </trkpt>
      <trkpt lat="43.53268" lon="6.13838">
        <ele>395.6</ele>
        <time>2012-11-02T09:22:30Z</time>
      </trkpt>
      <trkpt lat="43.5328" lon="6.13849">
        <ele>395.6</ele>
        <time>2012-11-02T09:22:48Z</time>
      </trkpt>
      <trkpt lat="43.53289" lon="6.13854">
        <ele>394.6</ele>
        <time>2012-11-02T09:23:14Z</time>
      </trkpt>
      <trkpt lat="43.53297" lon="6.13856">
        <ele>393.3</ele>
        <time>2012-11-02T09:23:27Z</time>
      </trkpt>
      <trkpt lat="43.53305" lon="6.13859">
        <ele>393.6</ele>
        <time>2012-11-02T09:23:35Z</time>
      </trkpt>
      <trkpt lat="43.53306" lon="6.1386">
        <ele>393.8</ele>
        <time>2012-11-02T09:23:36Z</time>
      </trkpt>
      <trkpt lat="43.53322" lon="6.13867">
        <ele>392.9</ele>
        <time>2012-11-02T09:23:54Z</time>
      </trkpt>
      <trkpt lat="43.53331" lon="6.1387">
        <ele>392.6</ele>
        <time>2012-11-02T09:24:04Z</time>
      </trkpt>
      <trkpt lat="43.53339" lon="6.13874">
        <ele>391.9</ele>
        <time>2012-11-02T09:24:24Z</time>
      </trkpt>
      <trkpt lat="43.53347" lon="6.13875">
        <ele>391.4</ele>
        <time>2012-11-02T09:24:32Z</time>
      </trkpt>
      <trkpt lat="43.53355" lon="6.13879">
        <ele>392.2</ele>
        <time>2012-11-02T09:24:41Z</time>
      </trkpt>
      <trkpt lat="43.53356" lon="6.1388">
        <ele>392.3</ele>
        <time>2012-11-02T09:24:42Z</time>
      </trkpt>
      <trkpt lat="43.5337" lon="6.13892">
        <ele>391.2</ele>
        <time>2012-11-02T09:25:03Z</time>
      </trkpt>
      <trkpt lat="43.53379" lon="6.13895">
        <ele>389.7</ele>
        <time>2012-11-02T09:25:13Z</time>
      </trkpt>
      <trkpt lat="43.53387" lon="6.13896">
        <ele>388.5</ele>
        <time>2012-11-02T09:25:22Z</time>
      </trkpt>
      <trkpt lat="43.53396" lon="6.13899">
        <ele>386.4</ele>
        <time>2012-11-02T09:25:34Z</time>
      </trkpt>
      <trkpt lat="43.53404" lon="6.13904">
        <ele>384.4</ele>
        <time>2012-11-02T09:25:46Z</time>
      </trkpt>
      <trkpt lat="43.53405" lon="6.13904">
        <ele>384.2</ele>
        <time>2012-11-02T09:25:47Z</time>
      </trkpt>
      <trkpt lat="43.53419" lon="6.13916">
        <ele>380.3</ele>
        <time>2012-11-02T09:26:41Z</time>
      </trkpt>
      <trkpt lat="43.53427" lon="6.13922">
        <ele>380.3</ele>
        <time>2012-11-02T09:27:46Z</time>
      </trkpt>
      <trkpt lat="43.53427" lon="6.13922">
        <ele>380.4</ele>
        <time>2012-11-02T09:27:47Z</time>
      </trkpt>
      <trkpt lat="43.53436" lon="6.13923">
        <ele>376.4</ele>
        <time>2012-11-02T09:30:42Z</time>
      </trkpt>
      <trkpt lat="43.53451" lon="6.13932">
        <ele>373</ele>
        <time>2012-11-02T09:31:01Z</time>
      </trkpt>
      <trkpt lat="43.53459" lon="6.13936">
        <ele>372.7</ele>
        <time>2012-11-02T09:31:12Z</time>
      </trkpt>
      <trkpt lat="43.53466" lon="6.13942">
        <ele>372</ele>
        <time>2012-11-02T09:31:22Z</time>
      </trkpt>
      <trkpt lat="43.53473" lon="6.1395">
        <ele>371.1</ele>
        <time>2012-11-02T09:31:37Z</time>
      </trkpt>
      <trkpt lat="43.53482" lon="6.13953">
        <ele>371.1</ele>
        <time>2012-11-02T09:31:48Z</time>
      </trkpt>
      <trkpt lat="43.53483" lon="6.13953">
        <ele>371.2</ele>
        <time>2012-11-02T09:31:49Z</time>
      </trkpt>
      <trkpt lat="43.53491" lon="6.1397">
        <ele>370.2</ele>
        <time>2012-11-02T09:32:42Z</time>
      </trkpt>
      <trkpt lat="43.53488" lon="6.13981">
        <ele>369.9</ele>
        <time>2012-11-02T09:34:09Z</time>
      </trkpt>
      <trkpt lat="43.53489" lon="6.13982">
        <ele>369.9</ele>
        <time>2012-11-02T09:34:10Z</time>
      </trkpt>
      <trkpt lat="43.53495" lon="6.14003">
        <ele>368.3</ele>
        <time>2012-11-02T09:37:48Z</time>
      </trkpt>
      <trkpt lat="43.53495" lon="6.14004">
        <ele>368.2</ele>
        <time>2012-11-02T09:37:49Z</time>
      </trkpt>
      <trkpt lat="43.53501" lon="6.14025">
        <ele>367.8</ele>
        <time>2012-11-02T09:38:28Z</time>
      </trkpt>
      <trkpt lat="43.53505" lon="6.14036">
        <ele>368</ele>
        <time>2012-11-02T09:38:54Z</time>
      </trkpt>
      <trkpt lat="43.53505" lon="6.14037">
        <ele>368.1</ele>
        <time>2012-11-02T09:38:55Z</time>
      </trkpt>
      <trkpt lat="43.53522" lon="6.14033">
        <ele>368.1</ele>
        <time>2012-11-02T09:39:14Z</time>
      </trkpt>
      <trkpt lat="43.53529" lon="6.14027">
        <ele>368</ele>
        <time>2012-11-02T09:39:23Z</time>
      </trkpt>
      <trkpt lat="43.53537" lon="6.14021">
        <ele>368.5</ele>
        <time>2012-11-02T09:39:33Z</time>
      </trkpt>
      <trkpt lat="43.53545" lon="6.14016">
        <ele>368.1</ele>
        <time>2012-11-02T09:39:45Z</time>
      </trkpt>
      <trkpt lat="43.53552" lon="6.14011">
        <ele>368.7</ele>
        <time>2012-11-02T09:39:54Z</time>
      </trkpt>
      <trkpt lat="43.53559" lon="6.14006">
        <ele>369.3</ele>
        <time>2012-11-02T09:40:03Z</time>
      </trkpt>
      <trkpt lat="43.5356" lon="6.14005">
        <ele>369.2</ele>
        <time>2012-11-02T09:40:04Z</time>
      </trkpt>
      <trkpt lat="43.53574" lon="6.13994">
        <ele>369.5</ele>
        <time>2012-11-02T09:40:22Z</time>
      </trkpt>
      <trkpt lat="43.53582" lon="6.13988">
        <ele>369.8</ele>
        <time>2012-11-02T09:40:31Z</time>
      </trkpt>
      <trkpt lat="43.5359" lon="6.13983">
        <ele>370.6</ele>
        <time>2012-11-02T09:40:40Z</time>
      </trkpt>
      <trkpt lat="43.53598" lon="6.13978">
        <ele>370.6</ele>
        <time>2012-11-02T09:40:50Z</time>
      </trkpt>
      <trkpt lat="43.53606" lon="6.13972">
        <ele>371.4</ele>
        <time>2012-11-02T09:41:00Z</time>
      </trkpt>
      <trkpt lat="43.53614" lon="6.13967">
        <ele>371.8</ele>
        <time>2012-11-02T09:41:09Z</time>
      </trkpt>
      <trkpt lat="43.53614" lon="6.13967">
        <ele>371.9</ele>
        <time>2012-11-02T09:41:10Z</time>
      </trkpt>
      <trkpt lat="43.53629" lon="6.13958">
        <ele>372.6</ele>
        <time>2012-11-02T09:41:27Z</time>
      </trkpt>
      <trkpt lat="43.53637" lon="6.13952">
        <ele>372.6</ele>
        <time>2012-11-02T09:41:37Z</time>
      </trkpt>
      <trkpt lat="43.53645" lon="6.13947">
        <ele>372.3</ele>
        <time>2012-11-02T09:41:58Z</time>
      </trkpt>
      <trkpt lat="43.53652" lon="6.13954">
        <ele>372</ele>
        <time>2012-11-02T09:42:13Z</time>
      </trkpt>
      <trkpt lat="43.53653" lon="6.13954">
        <ele>371.5</ele>
        <time>2012-11-02T09:42:14Z</time>
      </trkpt>
      <trkpt lat="43.53667" lon="6.13967">
        <ele>371.1</ele>
        <time>2012-11-02T09:42:34Z</time>
      </trkpt>
      <trkpt lat="43.53674" lon="6.13974">
        <ele>370.7</ele>
        <time>2012-11-02T09:42:44Z</time>
      </trkpt>
      <trkpt lat="43.53682" lon="6.13979">
        <ele>370.9</ele>
        <time>2012-11-02T09:42:53Z</time>
      </trkpt>
      <trkpt lat="43.53689" lon="6.13983">
        <ele>370.3</ele>
        <time>2012-11-02T09:43:02Z</time>
      </trkpt>
      <trkpt lat="43.53698" lon="6.13988">
        <ele>370.9</ele>
        <time>2012-11-02T09:43:12Z</time>
      </trkpt>
      <trkpt lat="43.53705" lon="6.13992">
        <ele>370.5</ele>
        <time>2012-11-02T09:43:21Z</time>
      </trkpt>
      <trkpt lat="43.53706" lon="6.13993">
        <ele>370.5</ele>
        <time>2012-11-02T09:43:22Z</time>
      </trkpt>
      <trkpt lat="43.53721" lon="6.13994">
        <ele>372.3</ele>
        <time>2012-11-02T09:44:02Z</time>
      </trkpt>
      <trkpt lat="43.53723" lon="6.13982">
        <ele>373.2</ele>
        <time>2012-11-02T09:44:15Z</time>
      </trkpt>
      <trkpt lat="43.53728" lon="6.13972">
        <ele>374</ele>
        <time>2012-11-02T09:44:25Z</time>
      </trkpt>
      <trkpt lat="43.53729" lon="6.13971">
        <ele>374</ele>
        <time>2012-11-02T09:44:26Z</time>
      </trkpt>
      <trkpt lat="43.53742" lon="6.13959">
        <ele>374.5</ele>
        <time>2012-11-02T09:44:47Z</time>
      </trkpt>
      <trkpt lat="43.53749" lon="6.13953">
        <ele>376</ele>
        <time>2012-11-02T09:45:02Z</time>
      </trkpt>
      <trkpt lat="43.53757" lon="6.1395">
        <ele>376.7</ele>
        <time>2012-11-02T09:45:13Z</time>
      </trkpt>
      <trkpt lat="43.53765" lon="6.13945">
        <ele>377.2</ele>
        <time>2012-11-02T09:45:21Z</time>
      </trkpt>
      <trkpt lat="43.53773" lon="6.13941">
        <ele>377.1</ele>
        <time>2012-11-02T09:45:29Z</time>
      </trkpt>
      <trkpt lat="43.53774" lon="6.1394">
        <ele>377.2</ele>
        <time>2012-11-02T09:45:30Z</time>
      </trkpt>
      <trkpt lat="43.53789" lon="6.13932">
        <ele>378.2</ele>
        <time>2012-11-02T09:45:47Z</time>
      </trkpt>
      <trkpt lat="43.53796" lon="6.13926">
        <ele>378.2</ele>
        <time>2012-11-02T09:45:56Z</time>
      </trkpt>
      <trkpt lat="43.53803" lon="6.1392">
        <ele>379.5</ele>
        <time>2012-11-02T09:46:06Z</time>
      </trkpt>
      <trkpt lat="43.53809" lon="6.13911">
        <ele>379.6</ele>
        <time>2012-11-02T09:46:17Z</time>
      </trkpt>
      <trkpt lat="43.53815" lon="6.13904">
        <ele>380.3</ele>
        <time>2012-11-02T09:46:26Z</time>
      </trkpt>
      <trkpt lat="43.5382" lon="6.13894">
        <ele>379.9</ele>
        <time>2012-11-02T09:46:38Z</time>
      </trkpt>
      <trkpt lat="43.53821" lon="6.13893">
        <ele>380.2</ele>
        <time>2012-11-02T09:46:39Z</time>
      </trkpt>
      <trkpt lat="43.5383" lon="6.13875">
        <ele>380.3</ele>
        <time>2012-11-02T09:47:00Z</time>
      </trkpt>
      <trkpt lat="43.53837" lon="6.13868">
        <ele>380.1</ele>
        <time>2012-11-02T09:47:10Z</time>
      </trkpt>
      <trkpt lat="43.53845" lon="6.13861">
        <ele>380</ele>
        <time>2012-11-02T09:47:20Z</time>
      </trkpt>
      <trkpt lat="43.53853" lon="6.13855">
        <ele>380.3</ele>
        <time>2012-11-02T09:47:32Z</time>
      </trkpt>
      <trkpt lat="43.53861" lon="6.13853">
        <ele>379.6</ele>
        <time>2012-11-02T09:47:39Z</time>
      </trkpt>
      <trkpt lat="43.53862" lon="6.13852">
        <ele>379.5</ele>
        <time>2012-11-02T09:47:40Z</time>
      </trkpt>
      <trkpt lat="43.53878" lon="6.13843">
        <ele>379.7</ele>
        <time>2012-11-02T09:47:57Z</time>
      </trkpt>
      <trkpt lat="43.53886" lon="6.13839">
        <ele>379.5</ele>
        <time>2012-11-02T09:48:08Z</time>
      </trkpt>
      <trkpt lat="43.53894" lon="6.13837">
        <ele>379.8</ele>
        <time>2012-11-02T09:48:18Z</time>
      </trkpt>
      <trkpt lat="43.53903" lon="6.13836">
        <ele>380.2</ele>
        <time>2012-11-02T09:48:26Z</time>
      </trkpt>
      <trkpt lat="43.53912" lon="6.13835">
        <ele>379.9</ele>
        <time>2012-11-02T09:48:35Z</time>
      </trkpt>
      <trkpt lat="43.5392" lon="6.13833">
        <ele>380.3</ele>
        <time>2012-11-02T09:48:46Z</time>
      </trkpt>
      <trkpt lat="43.53921" lon="6.13833">
        <ele>380.1</ele>
        <time>2012-11-02T09:48:47Z</time>
      </trkpt>
      <trkpt lat="43.53936" lon="6.13834">
        <ele>380.7</ele>
        <time>2012-11-02T09:49:02Z</time>
      </trkpt>
      <trkpt lat="43.53945" lon="6.13835">
        <ele>381.1</ele>
        <time>2012-11-02T09:49:11Z</time>
      </trkpt>
      <trkpt lat="43.53953" lon="6.13838">
        <ele>380.5</ele>
        <time>2012-11-02T09:49:20Z</time>
      </trkpt>
      <trkpt lat="43.53962" lon="6.13842">
        <ele>381</ele>
        <time>2012-11-02T09:49:49Z</time>
      </trkpt>
      <trkpt lat="43.53962" lon="6.13842">
        <ele>380.9</ele>
        <time>2012-11-02T09:49:50Z</time>
      </trkpt>
      <trkpt lat="43.5397" lon="6.13838">
        <ele>381.6</ele>
        <time>2012-11-02T09:51:20Z</time>
      </trkpt>
      <trkpt lat="43.53985" lon="6.13827">
        <ele>381.3</ele>
        <time>2012-11-02T09:51:42Z</time>
      </trkpt>
      <trkpt lat="43.5399" lon="6.13819">
        <ele>381.7</ele>
        <time>2012-11-02T09:51:53Z</time>
      </trkpt>
      <trkpt lat="43.53996" lon="6.13809">
        <ele>381.3</ele>
        <time>2012-11-02T09:52:17Z</time>
      </trkpt>
      <trkpt lat="43.54003" lon="6.13802">
        <ele>380.7</ele>
        <time>2012-11-02T09:52:43Z</time>
      </trkpt>
      <trkpt lat="43.54003" lon="6.13801">
        <ele>380.4</ele>
        <time>2012-11-02T09:52:44Z</time>
      </trkpt>
      <trkpt lat="43.54015" lon="6.13786">
        <ele>381</ele>
        <time>2012-11-02T09:53:03Z</time>
      </trkpt>
      <trkpt lat="43.54021" lon="6.13777">
        <ele>381.1</ele>
        <time>2012-11-02T09:53:12Z</time>
      </trkpt>
      <trkpt lat="43.54025" lon="6.13767">
        <ele>381.9</ele>
        <time>2012-11-02T09:53:21Z</time>
      </trkpt>
      <trkpt lat="43.54029" lon="6.13756">
        <ele>381.9</ele>
        <time>2012-11-02T09:53:35Z</time>
      </trkpt>
      <trkpt lat="43.54032" lon="6.13745">
        <ele>382.3</ele>
        <time>2012-11-02T09:53:48Z</time>
      </trkpt>
      <trkpt lat="43.54032" lon="6.13744">
        <ele>382.7</ele>
        <time>2012-11-02T09:53:49Z</time>
      </trkpt>
      <trkpt lat="43.54039" lon="6.13722">
        <ele>382.5</ele>
        <time>2012-11-02T09:54:22Z</time>
      </trkpt>
      <trkpt lat="43.54035" lon="6.13732">
        <ele>381.8</ele>
        <time>2012-11-02T09:54:58Z</time>
      </trkpt>
      <trkpt lat="43.54034" lon="6.13733">
        <ele>381.6</ele>
        <time>2012-11-02T09:54:59Z</time>
      </trkpt>
      <trkpt lat="43.54028" lon="6.13754">
        <ele>382</ele>
        <time>2012-11-02T09:55:34Z</time>
      </trkpt>
      <trkpt lat="43.54024" lon="6.13765">
        <ele>381.3</ele>
        <time>2012-11-02T09:55:45Z</time>
      </trkpt>
      <trkpt lat="43.54019" lon="6.13774">
        <ele>380.8</ele>
        <time>2012-11-02T09:55:57Z</time>
      </trkpt>
      <trkpt lat="43.54015" lon="6.13784">
        <ele>381.6</ele>
        <time>2012-11-02T09:56:12Z</time>
      </trkpt>
      <trkpt lat="43.54014" lon="6.13785">
        <ele>381.6</ele>
        <time>2012-11-02T09:56:13Z</time>
      </trkpt>
      <trkpt lat="43.54003" lon="6.13802">
        <ele>381.8</ele>
        <time>2012-11-02T09:56:58Z</time>
      </trkpt>
      <trkpt lat="43.53996" lon="6.13809">
        <ele>381.3</ele>
        <time>2012-11-02T09:57:14Z</time>
      </trkpt>
      <trkpt lat="43.53995" lon="6.1381">
        <ele>381.6</ele>
        <time>2012-11-02T09:57:15Z</time>
      </trkpt>
      <trkpt lat="43.53982" lon="6.13823">
        <ele>381.8</ele>
        <time>2012-11-02T09:57:43Z</time>
      </trkpt>
      <trkpt lat="43.53976" lon="6.13832">
        <ele>381.1</ele>
        <time>2012-11-02T09:57:55Z</time>
      </trkpt>
      <trkpt lat="43.53968" lon="6.13838">
        <ele>381.6</ele>
        <time>2012-11-02T09:58:14Z</time>
      </trkpt>
      <trkpt lat="43.53961" lon="6.13844">
        <ele>382.3</ele>
        <time>2012-11-02T09:58:59Z</time>
      </trkpt>
      <trkpt lat="43.5396" lon="6.13845">
        <ele>382.3</ele>
        <time>2012-11-02T09:59:00Z</time>
      </trkpt>
      <trkpt lat="43.5395" lon="6.13861">
        <ele>385.4</ele>
        <time>2012-11-02T09:59:41Z</time>
      </trkpt>
      <trkpt lat="43.53946" lon="6.13872">
        <ele>385.5</ele>
        <time>2012-11-02T09:59:53Z</time>
      </trkpt>
      <trkpt lat="43.53944" lon="6.13883">
        <ele>386.5</ele>
        <time>2012-11-02T10:00:15Z</time>
      </trkpt>
      <trkpt lat="43.53944" lon="6.13884">
        <ele>386.8</ele>
        <time>2012-11-02T10:00:16Z</time>
      </trkpt>
      <trkpt lat="43.5394" lon="6.13905">
        <ele>388.9</ele>
        <time>2012-11-02T10:00:38Z</time>
      </trkpt>
      <trkpt lat="43.53937" lon="6.13917">
        <ele>390.2</ele>
        <time>2012-11-02T10:00:50Z</time>
      </trkpt>
      <trkpt lat="43.53934" lon="6.13928">
        <ele>392.1</ele>
        <time>2012-11-02T10:01:06Z</time>
      </trkpt>
      <trkpt lat="43.53933" lon="6.13939">
        <ele>392.5</ele>
        <time>2012-11-02T10:01:19Z</time>
      </trkpt>
      <trkpt lat="43.53933" lon="6.1394">
        <ele>392.7</ele>
        <time>2012-11-02T10:01:20Z</time>
      </trkpt>
      <trkpt lat="43.53941" lon="6.13959">
        <ele>395.1</ele>
        <time>2012-11-02T10:01:38Z</time>
      </trkpt>
      <trkpt lat="43.53941" lon="6.13971">
        <ele>395.7</ele>
        <time>2012-11-02T10:01:49Z</time>
      </trkpt>
      <trkpt lat="43.53944" lon="6.13982">
        <ele>396.4</ele>
        <time>2012-11-02T10:02:00Z</time>
      </trkpt>
      <trkpt lat="43.53944" lon="6.13994">
        <ele>396.6</ele>
        <time>2012-11-02T10:02:12Z</time>
      </trkpt>
      <trkpt lat="43.53942" lon="6.14006">
        <ele>396.7</ele>
        <time>2012-11-02T10:03:41Z</time>
      </trkpt>
      <trkpt lat="43.53942" lon="6.14006">
        <ele>396.7</ele>
        <time>2012-11-02T10:03:42Z</time>
      </trkpt>
      <trkpt lat="43.5394" lon="6.14029">
        <ele>399.9</ele>
        <time>2012-11-02T10:04:27Z</time>
      </trkpt>
      <trkpt lat="43.53942" lon="6.14041">
        <ele>400</ele>
        <time>2012-11-02T10:04:46Z</time>
      </trkpt>
      <trkpt lat="43.53942" lon="6.14042">
        <ele>400</ele>
        <time>2012-11-02T10:04:47Z</time>
      </trkpt>
      <trkpt lat="43.53942" lon="6.14065">
        <ele>400.9</ele>
        <time>2012-11-02T10:06:44Z</time>
      </trkpt>
      <trkpt lat="43.53942" lon="6.14066">
        <ele>401</ele>
        <time>2012-11-02T10:06:45Z</time>
      </trkpt>
      <trkpt lat="43.53949" lon="6.14085">
        <ele>401</ele>
        <time>2012-11-02T10:07:12Z</time>
      </trkpt>
      <trkpt lat="43.53957" lon="6.14086">
        <ele>400.7</ele>
        <time>2012-11-02T10:07:24Z</time>
      </trkpt>
      <trkpt lat="43.53966" lon="6.14084">
        <ele>400.9</ele>
        <time>2012-11-02T10:07:35Z</time>
      </trkpt>
      <trkpt lat="43.53973" lon="6.14077">
        <ele>400.8</ele>
        <time>2012-11-02T10:07:46Z</time>
      </trkpt>
      <trkpt lat="43.53973" lon="6.14076">
        <ele>400.6</ele>
        <time>2012-11-02T10:07:47Z</time>
      </trkpt>
      <trkpt lat="43.53988" lon="6.14068">
        <ele>400.3</ele>
        <time>2012-11-02T10:08:04Z</time>
      </trkpt>
      <trkpt lat="43.53996" lon="6.14068">
        <ele>400.7</ele>
        <time>2012-11-02T10:08:13Z</time>
      </trkpt>
      <trkpt lat="43.54005" lon="6.14069">
        <ele>401</ele>
        <time>2012-11-02T10:08:22Z</time>
      </trkpt>
      <trkpt lat="43.54012" lon="6.14074">
        <ele>400.9</ele>
        <time>2012-11-02T10:08:33Z</time>
      </trkpt>
      <trkpt lat="43.54017" lon="6.14083">
        <ele>400.4</ele>
        <time>2012-11-02T10:08:46Z</time>
      </trkpt>
      <trkpt lat="43.54024" lon="6.14091">
        <ele>400.1</ele>
        <time>2012-11-02T10:08:57Z</time>
      </trkpt>
      <trkpt lat="43.54025" lon="6.14091">
        <ele>400</ele>
        <time>2012-11-02T10:08:58Z</time>
      </trkpt>
      <trkpt lat="43.54039" lon="6.14101">
        <ele>398.8</ele>
        <time>2012-11-02T10:09:19Z</time>
      </trkpt>
      <trkpt lat="43.54045" lon="6.1411">
        <ele>397.8</ele>
        <time>2012-11-02T10:09:29Z</time>
      </trkpt>
      <trkpt lat="43.54051" lon="6.14119">
        <ele>396.5</ele>
        <time>2012-11-02T10:09:43Z</time>
      </trkpt>
      <trkpt lat="43.54058" lon="6.14126">
        <ele>395.7</ele>
        <time>2012-11-02T10:09:56Z</time>
      </trkpt>
      <trkpt lat="43.54065" lon="6.14134">
        <ele>394.6</ele>
        <time>2012-11-02T10:10:08Z</time>
      </trkpt>
      <trkpt lat="43.54066" lon="6.14135">
        <ele>394.6</ele>
        <time>2012-11-02T10:10:09Z</time>
      </trkpt>
      <trkpt lat="43.54076" lon="6.14151">
        <ele>392.5</ele>
        <time>2012-11-02T10:10:30Z</time>
      </trkpt>
      <trkpt lat="43.54082" lon="6.14159">
        <ele>391.3</ele>
        <time>2012-11-02T10:10:41Z</time>
      </trkpt>
      <trkpt lat="43.54089" lon="6.14166">
        <ele>390.9</ele>
        <time>2012-11-02T10:10:50Z</time>
      </trkpt>
      <trkpt lat="43.54095" lon="6.14174">
        <ele>389.5</ele>
        <time>2012-11-02T10:11:01Z</time>
      </trkpt>
      <trkpt lat="43.54101" lon="6.14182">
        <ele>389.2</ele>
        <time>2012-11-02T10:11:11Z</time>
      </trkpt>
      <trkpt lat="43.54101" lon="6.14183">
        <ele>389.1</ele>
        <time>2012-11-02T10:11:12Z</time>
      </trkpt>
      <trkpt lat="43.54112" lon="6.14199">
        <ele>386.2</ele>
        <time>2012-11-02T10:11:32Z</time>
      </trkpt>
      <trkpt lat="43.54118" lon="6.14207">
        <ele>386.6</ele>
        <time>2012-11-02T10:11:40Z</time>
      </trkpt>
      <trkpt lat="43.54125" lon="6.14215">
        <ele>385.3</ele>
        <time>2012-11-02T10:12:31Z</time>
      </trkpt>
      <trkpt lat="43.54125" lon="6.14216">
        <ele>385.4</ele>
        <time>2012-11-02T10:12:32Z</time>
      </trkpt>
      <trkpt lat="43.54112" lon="6.14232">
        <ele>383.5</ele>
        <time>2012-11-02T10:13:02Z</time>
      </trkpt>
      <trkpt lat="43.54108" lon="6.14242">
        <ele>384.2</ele>
        <time>2012-11-02T10:13:21Z</time>
      </trkpt>
      <trkpt lat="43.54105" lon="6.14253">
        <ele>384.1</ele>
        <time>2012-11-02T10:13:35Z</time>
      </trkpt>
      <trkpt lat="43.54105" lon="6.14254">
        <ele>384.3</ele>
        <time>2012-11-02T10:13:36Z</time>
      </trkpt>
      <trkpt lat="43.54095" lon="6.14273">
        <ele>384.1</ele>
        <time>2012-11-02T10:14:02Z</time>
      </trkpt>
      <trkpt lat="43.54088" lon="6.14279">
        <ele>383.5</ele>
        <time>2012-11-02T10:14:14Z</time>
      </trkpt>
      <trkpt lat="43.54082" lon="6.14288">
        <ele>383.3</ele>
        <time>2012-11-02T10:14:31Z</time>
      </trkpt>
      <trkpt lat="43.54075" lon="6.14296">
        <ele>382.5</ele>
        <time>2012-11-02T10:14:46Z</time>
      </trkpt>
      <trkpt lat="43.54074" lon="6.14296">
        <ele>382.4</ele>
        <time>2012-11-02T10:14:47Z</time>
      </trkpt>
      <trkpt lat="43.5406" lon="6.14306">
        <ele>381.4</ele>
        <time>2012-11-02T10:15:08Z</time>
      </trkpt>
      <trkpt lat="43.54055" lon="6.14316">
        <ele>381.2</ele>
        <time>2012-11-02T10:15:30Z</time>
      </trkpt>
      <trkpt lat="43.54048" lon="6.14324">
        <ele>380.5</ele>
        <time>2012-11-02T10:15:41Z</time>
      </trkpt>
      <trkpt lat="43.5405" lon="6.14336">
        <ele>378.7</ele>
        <time>2012-11-02T10:15:58Z</time>
      </trkpt>
      <trkpt lat="43.5405" lon="6.14337">
        <ele>379</ele>
        <time>2012-11-02T10:15:59Z</time>
      </trkpt>
      <trkpt lat="43.54062" lon="6.14353">
        <ele>379.3</ele>
        <time>2012-11-02T10:16:17Z</time>
      </trkpt>
      <trkpt lat="43.54067" lon="6.14361">
        <ele>379.8</ele>
        <time>2012-11-02T10:16:27Z</time>
      </trkpt>
      <trkpt lat="43.54074" lon="6.14369">
        <ele>381</ele>
        <time>2012-11-02T10:16:38Z</time>
      </trkpt>
      <trkpt lat="43.5408" lon="6.14377">
        <ele>381.7</ele>
        <time>2012-11-02T10:16:48Z</time>
      </trkpt>
      <trkpt lat="43.54086" lon="6.14385">
        <ele>382.2</ele>
        <time>2012-11-02T10:16:58Z</time>
      </trkpt>
      <trkpt lat="43.54092" lon="6.14393">
        <ele>383.3</ele>
        <time>2012-11-02T10:17:10Z</time>
      </trkpt>
      <trkpt lat="43.54093" lon="6.14394">
        <ele>383.5</ele>
        <time>2012-11-02T10:17:11Z</time>
      </trkpt>
      <trkpt lat="43.54105" lon="6.14408">
        <ele>385.1</ele>
        <time>2012-11-02T10:17:33Z</time>
      </trkpt>
      <trkpt lat="43.54108" lon="6.14419">
        <ele>385.1</ele>
        <time>2012-11-02T10:17:46Z</time>
      </trkpt>
      <trkpt lat="43.54113" lon="6.14429">
        <ele>385.7</ele>
        <time>2012-11-02T10:17:58Z</time>
      </trkpt>
      <trkpt lat="43.54119" lon="6.14437">
        <ele>387.1</ele>
        <time>2012-11-02T10:18:11Z</time>
      </trkpt>
      <trkpt lat="43.5412" lon="6.14438">
        <ele>387.4</ele>
        <time>2012-11-02T10:18:12Z</time>
      </trkpt>
      <trkpt lat="43.54132" lon="6.14454">
        <ele>388.2</ele>
        <time>2012-11-02T10:18:35Z</time>
      </trkpt>
      <trkpt lat="43.54138" lon="6.14461">
        <ele>388.8</ele>
        <time>2012-11-02T10:18:46Z</time>
      </trkpt>
      <trkpt lat="43.54144" lon="6.1447">
        <ele>389.5</ele>
        <time>2012-11-02T10:18:58Z</time>
      </trkpt>
      <trkpt lat="43.54146" lon="6.14482">
        <ele>389</ele>
        <time>2012-11-02T10:20:10Z</time>
      </trkpt>
      <trkpt lat="43.54145" lon="6.14483">
        <ele>389</ele>
        <time>2012-11-02T10:20:11Z</time>
      </trkpt>
      <trkpt lat="43.54131" lon="6.14496">
        <ele>387.1</ele>
        <time>2012-11-02T10:20:37Z</time>
      </trkpt>
      <trkpt lat="43.54125" lon="6.14504">
        <ele>386.2</ele>
        <time>2012-11-02T10:20:47Z</time>
      </trkpt>
      <trkpt lat="43.54123" lon="6.14516">
        <ele>384.3</ele>
        <time>2012-11-02T10:20:59Z</time>
      </trkpt>
      <trkpt lat="43.54128" lon="6.14525">
        <ele>383.4</ele>
        <time>2012-11-02T10:21:13Z</time>
      </trkpt>
      <trkpt lat="43.54129" lon="6.14526">
        <ele>383.1</ele>
        <time>2012-11-02T10:21:14Z</time>
      </trkpt>
      <trkpt lat="43.54142" lon="6.14539">
        <ele>379.9</ele>
        <time>2012-11-02T10:21:37Z</time>
      </trkpt>
      <trkpt lat="43.54149" lon="6.14545">
        <ele>378</ele>
        <time>2012-11-02T10:21:48Z</time>
      </trkpt>
      <trkpt lat="43.54157" lon="6.14551">
        <ele>376.1</ele>
        <time>2012-11-02T10:21:59Z</time>
      </trkpt>
      <trkpt lat="43.54164" lon="6.14557">
        <ele>375.2</ele>
        <time>2012-11-02T10:22:10Z</time>
      </trkpt>
      <trkpt lat="43.54171" lon="6.14563">
        <ele>373.2</ele>
        <time>2012-11-02T10:22:20Z</time>
      </trkpt>
      <trkpt lat="43.54172" lon="6.14563">
        <ele>372.9</ele>
        <time>2012-11-02T10:22:21Z</time>
      </trkpt>
      <trkpt lat="43.54186" lon="6.14575">
        <ele>370.3</ele>
        <time>2012-11-02T10:22:41Z</time>
      </trkpt>
      <trkpt lat="43.54193" lon="6.14582">
        <ele>369.1</ele>
        <time>2012-11-02T10:22:52Z</time>
      </trkpt>
      <trkpt lat="43.542" lon="6.1459">
        <ele>367.6</ele>
        <time>2012-11-02T10:23:02Z</time>
      </trkpt>
      <trkpt lat="43.54208" lon="6.14596">
        <ele>365.8</ele>
        <time>2012-11-02T10:23:12Z</time>
      </trkpt>
      <trkpt lat="43.54215" lon="6.14601">
        <ele>364.1</ele>
        <time>2012-11-02T10:23:22Z</time>
      </trkpt>
      <trkpt lat="43.54216" lon="6.14602">
        <ele>364</ele>
        <time>2012-11-02T10:23:23Z</time>
      </trkpt>
      <trkpt lat="43.5423" lon="6.14613">
        <ele>362.9</ele>
        <time>2012-11-02T10:23:42Z</time>
      </trkpt>
      <trkpt lat="43.54237" lon="6.14619">
        <ele>362</ele>
        <time>2012-11-02T10:23:52Z</time>
      </trkpt>
      <trkpt lat="43.54245" lon="6.14625">
        <ele>361.6</ele>
        <time>2012-11-02T10:24:02Z</time>
      </trkpt>
      <trkpt lat="43.54252" lon="6.14631">
        <ele>359.9</ele>
        <time>2012-11-02T10:24:12Z</time>
      </trkpt>
      <trkpt lat="43.5426" lon="6.14635">
        <ele>358.3</ele>
        <time>2012-11-02T10:24:22Z</time>
      </trkpt>
      <trkpt lat="43.54268" lon="6.14639">
        <ele>356.4</ele>
        <time>2012-11-02T10:24:34Z</time>
      </trkpt>
      <trkpt lat="43.54269" lon="6.14639">
        <ele>356.3</ele>
        <time>2012-11-02T10:24:35Z</time>
      </trkpt>
      <trkpt lat="43.54277" lon="6.14653">
        <ele>354.5</ele>
        <time>2012-11-02T10:25:10Z</time>
      </trkpt>
      <trkpt lat="43.54273" lon="6.14664">
        <ele>353.6</ele>
        <time>2012-11-02T10:25:22Z</time>
      </trkpt>
      <trkpt lat="43.54269" lon="6.14674">
        <ele>351.9</ele>
        <time>2012-11-02T10:25:35Z</time>
      </trkpt>
      <trkpt lat="43.54269" lon="6.14687">
        <ele>351</ele>
        <time>2012-11-02T10:26:48Z</time>
      </trkpt>
      <trkpt lat="43.54269" lon="6.14687">
        <ele>350.7</ele>
        <time>2012-11-02T10:26:49Z</time>
      </trkpt>
      <trkpt lat="43.54253" lon="6.1469">
        <ele>349.5</ele>
        <time>2012-11-02T10:27:09Z</time>
      </trkpt>
      <trkpt lat="43.54245" lon="6.14695">
        <ele>349.5</ele>
        <time>2012-11-02T10:27:19Z</time>
      </trkpt>
      <trkpt lat="43.54237" lon="6.14701">
        <ele>347.9</ele>
        <time>2012-11-02T10:27:32Z</time>
      </trkpt>
      <trkpt lat="43.54229" lon="6.14702">
        <ele>347.6</ele>
        <time>2012-11-02T10:27:55Z</time>
      </trkpt>
      <trkpt lat="43.54228" lon="6.14702">
        <ele>347.6</ele>
        <time>2012-11-02T10:27:56Z</time>
      </trkpt>
      <trkpt lat="43.54219" lon="6.14701">
        <ele>347.1</ele>
        <time>2012-11-02T10:29:41Z</time>
      </trkpt>
      <trkpt lat="43.54204" lon="6.14708">
        <ele>345.8</ele>
        <time>2012-11-02T10:30:12Z</time>
      </trkpt>
      <trkpt lat="43.54198" lon="6.14717">
        <ele>344.3</ele>
        <time>2012-11-02T10:30:33Z</time>
      </trkpt>
      <trkpt lat="43.54193" lon="6.14727">
        <ele>342.3</ele>
        <time>2012-11-02T10:30:55Z</time>
      </trkpt>
      <trkpt lat="43.54192" lon="6.14728">
        <ele>342.2</ele>
        <time>2012-11-02T10:30:56Z</time>
      </trkpt>
      <trkpt lat="43.54187" lon="6.1475">
        <ele>341</ele>
        <time>2012-11-02T10:31:19Z</time>
      </trkpt>
      <trkpt lat="43.54184" lon="6.14761">
        <ele>340.6</ele>
        <time>2012-11-02T10:31:30Z</time>
      </trkpt>
      <trkpt lat="43.54181" lon="6.14772">
        <ele>339.8</ele>
        <time>2012-11-02T10:31:40Z</time>
      </trkpt>
      <trkpt lat="43.54178" lon="6.14783">
        <ele>339.1</ele>
        <time>2012-11-02T10:31:51Z</time>
      </trkpt>
      <trkpt lat="43.54174" lon="6.14794">
        <ele>338.9</ele>
        <time>2012-11-02T10:32:05Z</time>
      </trkpt>
      <trkpt lat="43.54174" lon="6.14795">
        <ele>338.5</ele>
        <time>2012-11-02T10:32:06Z</time>
      </trkpt>
      <trkpt lat="43.54162" lon="6.14809">
        <ele>337.3</ele>
        <time>2012-11-02T10:32:42Z</time>
      </trkpt>
      <trkpt lat="43.54154" lon="6.14807">
        <ele>337.8</ele>
        <time>2012-11-02T10:32:51Z</time>
      </trkpt>
      <trkpt lat="43.54146" lon="6.14804">
        <ele>337.3</ele>
        <time>2012-11-02T10:33:01Z</time>
      </trkpt>
      <trkpt lat="43.54137" lon="6.14801">
        <ele>337.2</ele>
        <time>2012-11-02T10:33:11Z</time>
      </trkpt>
      <trkpt lat="43.54136" lon="6.14801">
        <ele>337.6</ele>
        <time>2012-11-02T10:33:12Z</time>
      </trkpt>
      <trkpt lat="43.5412" lon="6.14795">
        <ele>337.5</ele>
        <time>2012-11-02T10:33:29Z</time>
      </trkpt>
      <trkpt lat="43.54112" lon="6.14792">
        <ele>337.2</ele>
        <time>2012-11-02T10:33:39Z</time>
      </trkpt>
      <trkpt lat="43.54104" lon="6.14788">
        <ele>337</ele>
        <time>2012-11-02T10:33:48Z</time>
      </trkpt>
      <trkpt lat="43.54096" lon="6.14784">
        <ele>337.7</ele>
        <time>2012-11-02T10:33:56Z</time>
      </trkpt>
      <trkpt lat="43.54087" lon="6.14785">
        <ele>338.5</ele>
        <time>2012-11-02T10:34:05Z</time>
      </trkpt>
      <trkpt lat="43.54079" lon="6.14787">
        <ele>338.2</ele>
        <time>2012-11-02T10:34:14Z</time>
      </trkpt>
      <trkpt lat="43.54078" lon="6.14787">
        <ele>337.9</ele>
        <time>2012-11-02T10:34:15Z</time>
      </trkpt>
      <trkpt lat="43.54063" lon="6.14781">
        <ele>336.7</ele>
        <time>2012-11-02T10:34:30Z</time>
      </trkpt>
      <trkpt lat="43.54055" lon="6.14778">
        <ele>336.1</ele>
        <time>2012-11-02T10:34:39Z</time>
      </trkpt>
      <trkpt lat="43.54046" lon="6.14775">
        <ele>336.2</ele>
        <time>2012-11-02T10:34:48Z</time>
      </trkpt>
      <trkpt lat="43.54037" lon="6.14774">
        <ele>336.1</ele>
        <time>2012-11-02T10:34:57Z</time>
      </trkpt>
      <trkpt lat="43.54029" lon="6.14775">
        <ele>336.8</ele>
        <time>2012-11-02T10:35:05Z</time>
      </trkpt>
      <trkpt lat="43.5402" lon="6.14775">
        <ele>336.6</ele>
        <time>2012-11-02T10:35:14Z</time>
      </trkpt>
      <trkpt lat="43.54019" lon="6.14775">
        <ele>336.2</ele>
        <time>2012-11-02T10:35:15Z</time>
      </trkpt>
      <trkpt lat="43.54004" lon="6.14781">
        <ele>335.6</ele>
        <time>2012-11-02T10:35:30Z</time>
      </trkpt>
      <trkpt lat="43.53997" lon="6.14785">
        <ele>336.3</ele>
        <time>2012-11-02T10:35:38Z</time>
      </trkpt>
      <trkpt lat="43.53989" lon="6.1479">
        <ele>336.8</ele>
        <time>2012-11-02T10:35:48Z</time>
      </trkpt>
      <trkpt lat="43.53981" lon="6.14796">
        <ele>337.5</ele>
        <time>2012-11-02T10:36:01Z</time>
      </trkpt>
      <trkpt lat="43.53973" lon="6.14799">
        <ele>340</ele>
        <time>2012-11-02T10:36:16Z</time>
      </trkpt>
      <trkpt lat="43.53972" lon="6.14799">
        <ele>339.9</ele>
        <time>2012-11-02T10:36:17Z</time>
      </trkpt>
      <trkpt lat="43.53958" lon="6.14786">
        <ele>340.2</ele>
        <time>2012-11-02T10:38:10Z</time>
      </trkpt>
      <trkpt lat="43.53957" lon="6.14785">
        <ele>340.2</ele>
        <time>2012-11-02T10:38:11Z</time>
      </trkpt>
      <trkpt lat="43.53945" lon="6.1477">
        <ele>341.3</ele>
        <time>2012-11-02T10:38:39Z</time>
      </trkpt>
      <trkpt lat="43.53938" lon="6.14763">
        <ele>341.4</ele>
        <time>2012-11-02T10:38:51Z</time>
      </trkpt>
      <trkpt lat="43.53932" lon="6.14756">
        <ele>340.8</ele>
        <time>2012-11-02T10:39:12Z</time>
      </trkpt>
      <trkpt lat="43.53931" lon="6.14755">
        <ele>341</ele>
        <time>2012-11-02T10:39:13Z</time>
      </trkpt>
      <trkpt lat="43.53918" lon="6.14742">
        <ele>339.9</ele>
        <time>2012-11-02T10:40:19Z</time>
      </trkpt>
      <trkpt lat="43.53917" lon="6.14741">
        <ele>339.8</ele>
        <time>2012-11-02T10:40:20Z</time>
      </trkpt>
      <trkpt lat="43.53905" lon="6.14727">
        <ele>339.1</ele>
        <time>2012-11-02T10:40:40Z</time>
      </trkpt>
      <trkpt lat="43.53898" lon="6.1472">
        <ele>339.9</ele>
        <time>2012-11-02T10:40:51Z</time>
      </trkpt>
      <trkpt lat="43.5389" lon="6.14715">
        <ele>339.9</ele>
        <time>2012-11-02T10:41:02Z</time>
      </trkpt>
      <trkpt lat="43.53882" lon="6.1471">
        <ele>339.6</ele>
        <time>2012-11-02T10:41:13Z</time>
      </trkpt>
      <trkpt lat="43.53873" lon="6.14708">
        <ele>338.7</ele>
        <time>2012-11-02T10:41:23Z</time>
      </trkpt>
      <trkpt lat="43.53873" lon="6.14707">
        <ele>338.6</ele>
        <time>2012-11-02T10:41:24Z</time>
      </trkpt>
      <trkpt lat="43.53856" lon="6.14706">
        <ele>338.6</ele>
        <time>2012-11-02T10:41:43Z</time>
      </trkpt>
      <trkpt lat="43.53848" lon="6.14707">
        <ele>339.3</ele>
        <time>2012-11-02T10:41:54Z</time>
      </trkpt>
      <trkpt lat="43.5384" lon="6.14709">
        <ele>338.2</ele>
        <time>2012-11-02T10:42:11Z</time>
      </trkpt>
      <trkpt lat="43.53832" lon="6.14713">
        <ele>338.7</ele>
        <time>2012-11-02T10:42:21Z</time>
      </trkpt>
      <trkpt lat="43.53824" lon="6.14716">
        <ele>337.6</ele>
        <time>2012-11-02T10:42:31Z</time>
      </trkpt>
      <trkpt lat="43.53823" lon="6.14717">
        <ele>337.9</ele>
        <time>2012-11-02T10:42:32Z</time>
      </trkpt>
      <trkpt lat="43.53808" lon="6.14725">
        <ele>338</ele>
        <time>2012-11-02T10:42:50Z</time>
      </trkpt>
      <trkpt lat="43.53801" lon="6.1473">
        <ele>337.6</ele>
        <time>2012-11-02T10:42:59Z</time>
      </trkpt>
      <trkpt lat="43.53793" lon="6.14734">
        <ele>337.9</ele>
        <time>2012-11-02T10:43:08Z</time>
      </trkpt>
      <trkpt lat="43.53785" lon="6.14739">
        <ele>338.2</ele>
        <time>2012-11-02T10:43:17Z</time>
      </trkpt>
      <trkpt lat="43.53777" lon="6.14741">
        <ele>337.6</ele>
        <time>2012-11-02T10:43:34Z</time>
      </trkpt>
      <trkpt lat="43.53776" lon="6.14742">
        <ele>337.6</ele>
        <time>2012-11-02T10:43:35Z</time>
      </trkpt>
      <trkpt lat="43.53759" lon="6.14739">
        <ele>336.9</ele>
        <time>2012-11-02T10:43:54Z</time>
      </trkpt>
      <trkpt lat="43.53751" lon="6.14734">
        <ele>337.4</ele>
        <time>2012-11-02T10:44:05Z</time>
      </trkpt>
      <trkpt lat="43.53743" lon="6.1473">
        <ele>338.7</ele>
        <time>2012-11-02T10:44:16Z</time>
      </trkpt>
      <trkpt lat="43.53736" lon="6.14724">
        <ele>338.9</ele>
        <time>2012-11-02T10:44:26Z</time>
      </trkpt>
      <trkpt lat="43.53729" lon="6.14717">
        <ele>339.1</ele>
        <time>2012-11-02T10:44:37Z</time>
      </trkpt>
      <trkpt lat="43.53728" lon="6.14716">
        <ele>339.3</ele>
        <time>2012-11-02T10:44:38Z</time>
      </trkpt>
      <trkpt lat="43.53718" lon="6.14698">
        <ele>339.4</ele>
        <time>2012-11-02T10:44:57Z</time>
      </trkpt>
      <trkpt lat="43.5371" lon="6.14699">
        <ele>340.2</ele>
        <time>2012-11-02T10:45:31Z</time>
      </trkpt>
      <trkpt lat="43.53703" lon="6.14708">
        <ele>341.4</ele>
        <time>2012-11-02T10:45:44Z</time>
      </trkpt>
      <trkpt lat="43.53703" lon="6.14708">
        <ele>341.6</ele>
        <time>2012-11-02T10:45:45Z</time>
      </trkpt>
      <trkpt lat="43.53692" lon="6.14725">
        <ele>343</ele>
        <time>2012-11-02T10:46:06Z</time>
      </trkpt>
      <trkpt lat="43.53685" lon="6.14733">
        <ele>343.3</ele>
        <time>2012-11-02T10:47:23Z</time>
      </trkpt>
      <trkpt lat="43.53685" lon="6.14734">
        <ele>343.2</ele>
        <time>2012-11-02T10:47:24Z</time>
      </trkpt>
      <trkpt lat="43.5368" lon="6.14756">
        <ele>344.6</ele>
        <time>2012-11-02T10:47:49Z</time>
      </trkpt>
      <trkpt lat="43.53682" lon="6.14766">
        <ele>344.3</ele>
        <time>2012-11-02T10:47:57Z</time>
      </trkpt>
      <trkpt lat="43.53683" lon="6.14778">
        <ele>343.7</ele>
        <time>2012-11-02T10:48:06Z</time>
      </trkpt>
      <trkpt lat="43.53681" lon="6.1479">
        <ele>345.1</ele>
        <time>2012-11-02T10:48:16Z</time>
      </trkpt>
      <trkpt lat="43.53681" lon="6.14802">
        <ele>345.5</ele>
        <time>2012-11-02T10:48:34Z</time>
      </trkpt>
      <trkpt lat="43.53681" lon="6.14803">
        <ele>345.5</ele>
        <time>2012-11-02T10:48:35Z</time>
      </trkpt>
      <trkpt lat="43.53678" lon="6.14825">
        <ele>346.2</ele>
        <time>2012-11-02T10:49:02Z</time>
      </trkpt>
      <trkpt lat="43.53679" lon="6.14837">
        <ele>347.3</ele>
        <time>2012-11-02T10:49:10Z</time>
      </trkpt>
      <trkpt lat="43.53679" lon="6.14848">
        <ele>347.5</ele>
        <time>2012-11-02T10:49:18Z</time>
      </trkpt>
      <trkpt lat="43.53678" lon="6.1486">
        <ele>347.8</ele>
        <time>2012-11-02T10:49:30Z</time>
      </trkpt>
      <trkpt lat="43.53675" lon="6.14871">
        <ele>347.8</ele>
        <time>2012-11-02T10:49:42Z</time>
      </trkpt>
      <trkpt lat="43.53675" lon="6.14872">
        <ele>348</ele>
        <time>2012-11-02T10:49:43Z</time>
      </trkpt>
      <trkpt lat="43.53673" lon="6.14895">
        <ele>348.3</ele>
        <time>2012-11-02T10:50:02Z</time>
      </trkpt>
      <trkpt lat="43.53674" lon="6.14907">
        <ele>348.7</ele>
        <time>2012-11-02T10:50:12Z</time>
      </trkpt>
      <trkpt lat="43.53673" lon="6.14919">
        <ele>348.9</ele>
        <time>2012-11-02T10:50:23Z</time>
      </trkpt>
      <trkpt lat="43.53673" lon="6.14931">
        <ele>349.8</ele>
        <time>2012-11-02T10:50:34Z</time>
      </trkpt>
      <trkpt lat="43.53671" lon="6.14943">
        <ele>349.3</ele>
        <time>2012-11-02T10:50:51Z</time>
      </trkpt>
      <trkpt lat="43.53671" lon="6.14944">
        <ele>349.4</ele>
        <time>2012-11-02T10:50:52Z</time>
      </trkpt>
      <trkpt lat="43.53674" lon="6.14967">
        <ele>348.4</ele>
        <time>2012-11-02T10:51:11Z</time>
      </trkpt>
      <trkpt lat="43.53674" lon="6.14979">
        <ele>349.1</ele>
        <time>2012-11-02T10:51:20Z</time>
      </trkpt>
      <trkpt lat="43.53671" lon="6.14989">
        <ele>348.6</ele>
        <time>2012-11-02T10:51:29Z</time>
      </trkpt>
      <trkpt lat="43.53672" lon="6.15001">
        <ele>349.9</ele>
        <time>2012-11-02T10:51:37Z</time>
      </trkpt>
      <trkpt lat="43.53673" lon="6.15013">
        <ele>350</ele>
        <time>2012-11-02T10:51:48Z</time>
      </trkpt>
      <trkpt lat="43.53673" lon="6.15025">
        <ele>349.5</ele>
        <time>2012-11-02T10:51:57Z</time>
      </trkpt>
      <trkpt lat="43.53673" lon="6.15026">
        <ele>349.8</ele>
        <time>2012-11-02T10:51:58Z</time>
      </trkpt>
      <trkpt lat="43.53673" lon="6.15048">
        <ele>349.5</ele>
        <time>2012-11-02T10:52:13Z</time>
      </trkpt>
      <trkpt lat="43.53671" lon="6.15059">
        <ele>350</ele>
        <time>2012-11-02T10:52:23Z</time>
      </trkpt>
      <trkpt lat="43.5367" lon="6.15071">
        <ele>349.9</ele>
        <time>2012-11-02T10:52:32Z</time>
      </trkpt>
      <trkpt lat="43.5367" lon="6.15083">
        <ele>350.5</ele>
        <time>2012-11-02T10:52:42Z</time>
      </trkpt>
      <trkpt lat="43.5367" lon="6.15096">
        <ele>350.8</ele>
        <time>2012-11-02T10:52:52Z</time>
      </trkpt>
      <trkpt lat="43.5367" lon="6.15107">
        <ele>350.6</ele>
        <time>2012-11-02T10:53:03Z</time>
      </trkpt>
      <trkpt lat="43.5367" lon="6.15109">
        <ele>350.5</ele>
        <time>2012-11-02T10:53:04Z</time>
      </trkpt>
      <trkpt lat="43.53667" lon="6.1513">
        <ele>351.7</ele>
        <time>2012-11-02T10:53:27Z</time>
      </trkpt>
      <trkpt lat="43.53667" lon="6.15141">
        <ele>352.4</ele>
        <time>2012-11-02T10:53:37Z</time>
      </trkpt>
      <trkpt lat="43.53665" lon="6.15153">
        <ele>353.5</ele>
        <time>2012-11-02T10:53:47Z</time>
      </trkpt>
      <trkpt lat="43.53664" lon="6.15165">
        <ele>354.7</ele>
        <time>2012-11-02T10:53:58Z</time>
      </trkpt>
      <trkpt lat="43.5366" lon="6.15176">
        <ele>355.4</ele>
        <time>2012-11-02T10:54:09Z</time>
      </trkpt>
      <trkpt lat="43.5366" lon="6.15176">
        <ele>355.7</ele>
        <time>2012-11-02T10:54:10Z</time>
      </trkpt>
      <trkpt lat="43.53652" lon="6.15197">
        <ele>356</ele>
        <time>2012-11-02T10:54:30Z</time>
      </trkpt>
      <trkpt lat="43.53644" lon="6.15202">
        <ele>357.3</ele>
        <time>2012-11-02T10:54:43Z</time>
      </trkpt>
      <trkpt lat="43.53636" lon="6.15203">
        <ele>356.9</ele>
        <time>2012-11-02T10:54:56Z</time>
      </trkpt>
      <trkpt lat="43.53627" lon="6.15204">
        <ele>357.2</ele>
        <time>2012-11-02T10:55:08Z</time>
      </trkpt>
      <trkpt lat="43.53619" lon="6.15204">
        <ele>357.6</ele>
        <time>2012-11-02T10:55:18Z</time>
      </trkpt>
      <trkpt lat="43.53618" lon="6.15203">
        <ele>357.8</ele>
        <time>2012-11-02T10:55:19Z</time>
      </trkpt>
      <trkpt lat="43.53602" lon="6.15203">
        <ele>358</ele>
        <time>2012-11-02T10:55:50Z</time>
      </trkpt>
      <trkpt lat="43.53593" lon="6.15202">
        <ele>359.1</ele>
        <time>2012-11-02T10:56:03Z</time>
      </trkpt>
      <trkpt lat="43.53584" lon="6.15199">
        <ele>359.9</ele>
        <time>2012-11-02T10:56:12Z</time>
      </trkpt>
      <trkpt lat="43.53576" lon="6.15198">
        <ele>360.8</ele>
        <time>2012-11-02T10:56:22Z</time>
      </trkpt>
      <trkpt lat="43.53575" lon="6.15198">
        <ele>360.7</ele>
        <time>2012-11-02T10:56:23Z</time>
      </trkpt>
      <trkpt lat="43.5356" lon="6.15207">
        <ele>361.7</ele>
        <time>2012-11-02T10:56:47Z</time>
      </trkpt>
      <trkpt lat="43.53553" lon="6.15215">
        <ele>362.7</ele>
        <time>2012-11-02T10:56:59Z</time>
      </trkpt>
      <trkpt lat="43.53549" lon="6.15226">
        <ele>363.3</ele>
        <time>2012-11-02T10:57:11Z</time>
      </trkpt>
      <trkpt lat="43.53546" lon="6.15237">
        <ele>364.1</ele>
        <time>2012-11-02T10:57:23Z</time>
      </trkpt>
      <trkpt lat="43.53545" lon="6.15238">
        <ele>364.4</ele>
        <time>2012-11-02T10:57:24Z</time>
      </trkpt>
      <trkpt lat="43.53538" lon="6.15259">
        <ele>367.7</ele>
        <time>2012-11-02T10:58:02Z</time>
      </trkpt>
      <trkpt lat="43.53535" lon="6.15269">
        <ele>367.9</ele>
        <time>2012-11-02T10:58:13Z</time>
      </trkpt>
      <trkpt lat="43.53532" lon="6.1528">
        <ele>369.4</ele>
        <time>2012-11-02T10:58:26Z</time>
      </trkpt>
      <trkpt lat="43.53531" lon="6.15281">
        <ele>369.1</ele>
        <time>2012-11-02T10:58:27Z</time>
      </trkpt>
      <trkpt lat="43.53528" lon="6.15303">
        <ele>371.6</ele>
        <time>2012-11-02T10:58:50Z</time>
      </trkpt>
      <trkpt lat="43.53527" lon="6.15314">
        <ele>373.2</ele>
        <time>2012-11-02T10:59:02Z</time>
      </trkpt>
      <trkpt lat="43.53524" lon="6.15326">
        <ele>373</ele>
        <time>2012-11-02T10:59:17Z</time>
      </trkpt>
      <trkpt lat="43.53531" lon="6.15334">
        <ele>374.3</ele>
        <time>2012-11-02T11:01:24Z</time>
      </trkpt>
      <trkpt lat="43.53531" lon="6.15334">
        <ele>374.5</ele>
        <time>2012-11-02T11:01:25Z</time>
      </trkpt>
      <trkpt lat="43.53535" lon="6.15355">
        <ele>378.1</ele>
        <time>2012-11-02T11:02:02Z</time>
      </trkpt>
      <trkpt lat="43.53532" lon="6.15367">
        <ele>379.5</ele>
        <time>2012-11-02T11:02:15Z</time>
      </trkpt>
      <trkpt lat="43.5353" lon="6.15379">
        <ele>380.2</ele>
        <time>2012-11-02T11:02:31Z</time>
      </trkpt>
      <trkpt lat="43.53531" lon="6.1538">
        <ele>380.5</ele>
        <time>2012-11-02T11:02:32Z</time>
      </trkpt>
      <trkpt lat="43.53546" lon="6.15389">
        <ele>382.9</ele>
        <time>2012-11-02T11:03:00Z</time>
      </trkpt>
      <trkpt lat="43.53554" lon="6.15396">
        <ele>382.8</ele>
        <time>2012-11-02T11:03:13Z</time>
      </trkpt>
      <trkpt lat="43.53558" lon="6.15405">
        <ele>383</ele>
        <time>2012-11-02T11:03:23Z</time>
      </trkpt>
      <trkpt lat="43.53562" lon="6.15416">
        <ele>384.2</ele>
        <time>2012-11-02T11:03:35Z</time>
      </trkpt>
      <trkpt lat="43.53562" lon="6.15417">
        <ele>384.2</ele>
        <time>2012-11-02T11:03:36Z</time>
      </trkpt>
      <trkpt lat="43.53573" lon="6.15435">
        <ele>386.6</ele>
        <time>2012-11-02T11:04:01Z</time>
      </trkpt>
      <trkpt lat="43.53574" lon="6.15447">
        <ele>389</ele>
        <time>2012-11-02T11:04:16Z</time>
      </trkpt>
      <trkpt lat="43.53576" lon="6.15459">
        <ele>389.2</ele>
        <time>2012-11-02T11:04:29Z</time>
      </trkpt>
      <trkpt lat="43.53578" lon="6.15471">
        <ele>389.9</ele>
        <time>2012-11-02T11:04:43Z</time>
      </trkpt>
      <trkpt lat="43.53578" lon="6.15471">
        <ele>390.1</ele>
        <time>2012-11-02T11:04:44Z</time>
      </trkpt>
      <trkpt lat="43.53579" lon="6.15495">
        <ele>389.8</ele>
        <time>2012-11-02T11:05:09Z</time>
      </trkpt>
      <trkpt lat="43.53579" lon="6.15508">
        <ele>391.8</ele>
        <time>2012-11-02T11:05:49Z</time>
      </trkpt>
      <trkpt lat="43.53579" lon="6.15508">
        <ele>391.6</ele>
        <time>2012-11-02T11:05:50Z</time>
      </trkpt>
      <trkpt lat="43.53577" lon="6.15531">
        <ele>394.2</ele>
        <time>2012-11-02T11:06:39Z</time>
      </trkpt>
      <trkpt lat="43.53574" lon="6.15542">
        <ele>395.4</ele>
        <time>2012-11-02T11:06:53Z</time>
      </trkpt>
      <trkpt lat="43.53574" lon="6.15543">
        <ele>395.3</ele>
        <time>2012-11-02T11:06:54Z</time>
      </trkpt>
      <trkpt lat="43.53576" lon="6.15565">
        <ele>396.5</ele>
        <time>2012-11-02T11:07:21Z</time>
      </trkpt>
      <trkpt lat="43.53578" lon="6.15576">
        <ele>397.2</ele>
        <time>2012-11-02T11:07:30Z</time>
      </trkpt>
      <trkpt lat="43.5358" lon="6.15588">
        <ele>397.5</ele>
        <time>2012-11-02T11:07:41Z</time>
      </trkpt>
      <trkpt lat="43.53583" lon="6.15599">
        <ele>398.1</ele>
        <time>2012-11-02T11:07:51Z</time>
      </trkpt>
      <trkpt lat="43.53585" lon="6.1561">
        <ele>398.5</ele>
        <time>2012-11-02T11:08:00Z</time>
      </trkpt>
      <trkpt lat="43.53586" lon="6.15612">
        <ele>398.8</ele>
        <time>2012-11-02T11:08:01Z</time>
      </trkpt>
      <trkpt lat="43.53588" lon="6.15634">
        <ele>400.4</ele>
        <time>2012-11-02T11:08:21Z</time>
      </trkpt>
      <trkpt lat="43.53589" lon="6.15645">
        <ele>400.8</ele>
        <time>2012-11-02T11:08:31Z</time>
      </trkpt>
      <trkpt lat="43.53591" lon="6.15658">
        <ele>400.1</ele>
        <time>2012-11-02T11:08:39Z</time>
      </trkpt>
      <trkpt lat="43.53593" lon="6.15669">
        <ele>400.8</ele>
        <time>2012-11-02T11:08:47Z</time>
      </trkpt>
      <trkpt lat="43.53593" lon="6.15681">
        <ele>402.7</ele>
        <time>2012-11-02T11:09:00Z</time>
      </trkpt>
      <trkpt lat="43.53592" lon="6.15693">
        <ele>402.1</ele>
        <time>2012-11-02T11:09:15Z</time>
      </trkpt>
      <trkpt lat="43.53592" lon="6.15694">
        <ele>402.3</ele>
        <time>2012-11-02T11:09:16Z</time>
      </trkpt>
      <trkpt lat="43.5359" lon="6.15717">
        <ele>404.1</ele>
        <time>2012-11-02T11:09:36Z</time>
      </trkpt>
      <trkpt lat="43.53589" lon="6.15728">
        <ele>404</ele>
        <time>2012-11-02T11:09:45Z</time>
      </trkpt>
      <trkpt lat="43.53588" lon="6.1574">
        <ele>403.9</ele>
        <time>2012-11-02T11:09:55Z</time>
      </trkpt>
      <trkpt lat="43.53586" lon="6.15752">
        <ele>403.1</ele>
        <time>2012-11-02T11:10:06Z</time>
      </trkpt>
      <trkpt lat="43.53585" lon="6.15764">
        <ele>403.6</ele>
        <time>2012-11-02T11:10:18Z</time>
      </trkpt>
      <trkpt lat="43.53585" lon="6.15764">
        <ele>403.6</ele>
        <time>2012-11-02T11:10:19Z</time>
      </trkpt>
      <trkpt lat="43.53583" lon="6.15787">
        <ele>404.4</ele>
        <time>2012-11-02T11:10:40Z</time>
      </trkpt>
      <trkpt lat="43.53584" lon="6.158">
        <ele>405</ele>
        <time>2012-11-02T11:10:48Z</time>
      </trkpt>
      <trkpt lat="43.53586" lon="6.15811">
        <ele>405.7</ele>
        <time>2012-11-02T11:10:55Z</time>
      </trkpt>
      <trkpt lat="43.53586" lon="6.15823">
        <ele>405.7</ele>
        <time>2012-11-02T11:11:04Z</time>
      </trkpt>
      <trkpt lat="43.53581" lon="6.15833">
        <ele>406</ele>
        <time>2012-11-02T11:12:07Z</time>
      </trkpt>
      <trkpt lat="43.53581" lon="6.15833">
        <ele>405.6</ele>
        <time>2012-11-02T11:12:08Z</time>
      </trkpt>
      <trkpt lat="43.53583" lon="6.15846">
        <ele>406.2</ele>
        <time>2012-11-02T11:15:33Z</time>
      </trkpt>
      <trkpt lat="43.53584" lon="6.15868">
        <ele>406.3</ele>
        <time>2012-11-02T11:15:51Z</time>
      </trkpt>
      <trkpt lat="43.53586" lon="6.15879">
        <ele>406.5</ele>
        <time>2012-11-02T11:15:59Z</time>
      </trkpt>
      <trkpt lat="43.53586" lon="6.15891">
        <ele>406.7</ele>
        <time>2012-11-02T11:16:09Z</time>
      </trkpt>
      <trkpt lat="43.53586" lon="6.15903">
        <ele>407.5</ele>
        <time>2012-11-02T11:16:17Z</time>
      </trkpt>
      <trkpt lat="43.53583" lon="6.15914">
        <ele>408.3</ele>
        <time>2012-11-02T11:16:28Z</time>
      </trkpt>
      <trkpt lat="43.5358" lon="6.15925">
        <ele>408.6</ele>
        <time>2012-11-02T11:16:39Z</time>
      </trkpt>
      <trkpt lat="43.5358" lon="6.15925">
        <ele>408.5</ele>
        <time>2012-11-02T11:16:40Z</time>
      </trkpt>
      <trkpt lat="43.53571" lon="6.15945">
        <ele>409.3</ele>
        <time>2012-11-02T11:17:18Z</time>
      </trkpt>
      <trkpt lat="43.53567" lon="6.15956">
        <ele>410.6</ele>
        <time>2012-11-02T11:17:28Z</time>
      </trkpt>
      <trkpt lat="43.53565" lon="6.15967">
        <ele>409.9</ele>
        <time>2012-11-02T11:17:37Z</time>
      </trkpt>
      <trkpt lat="43.53567" lon="6.15978">
        <ele>410.7</ele>
        <time>2012-11-02T11:17:48Z</time>
      </trkpt>
      <trkpt lat="43.53567" lon="6.1598">
        <ele>410.4</ele>
        <time>2012-11-02T11:17:49Z</time>
      </trkpt>
      <trkpt lat="43.53565" lon="6.16003">
        <ele>410</ele>
        <time>2012-11-02T11:18:07Z</time>
      </trkpt>
      <trkpt lat="43.53562" lon="6.16014">
        <ele>410.1</ele>
        <time>2012-11-02T11:18:17Z</time>
      </trkpt>
      <trkpt lat="43.53559" lon="6.16025">
        <ele>411.4</ele>
        <time>2012-11-02T11:18:28Z</time>
      </trkpt>
      <trkpt lat="43.53559" lon="6.16037">
        <ele>413.3</ele>
        <time>2012-11-02T11:19:10Z</time>
      </trkpt>
      <trkpt lat="43.53558" lon="6.16038">
        <ele>413.3</ele>
        <time>2012-11-02T11:19:11Z</time>
      </trkpt>
      <trkpt lat="43.53554" lon="6.1606">
        <ele>412.4</ele>
        <time>2012-11-02T11:19:34Z</time>
      </trkpt>
      <trkpt lat="43.53553" lon="6.16072">
        <ele>413.3</ele>
        <time>2012-11-02T11:19:47Z</time>
      </trkpt>
      <trkpt lat="43.53552" lon="6.16084">
        <ele>413.3</ele>
        <time>2012-11-02T11:19:57Z</time>
      </trkpt>
      <trkpt lat="43.53549" lon="6.16095">
        <ele>413.9</ele>
        <time>2012-11-02T11:20:09Z</time>
      </trkpt>
      <trkpt lat="43.53545" lon="6.16106">
        <ele>413.7</ele>
        <time>2012-11-02T11:20:18Z</time>
      </trkpt>
      <trkpt lat="43.53545" lon="6.16107">
        <ele>414.2</ele>
        <time>2012-11-02T11:20:19Z</time>
      </trkpt>
      <trkpt lat="43.53539" lon="6.16128">
        <ele>414.9</ele>
        <time>2012-11-02T11:20:36Z</time>
      </trkpt>
      <trkpt lat="43.53537" lon="6.1614">
        <ele>415.4</ele>
        <time>2012-11-02T11:20:47Z</time>
      </trkpt>
      <trkpt lat="43.53535" lon="6.16151">
        <ele>416.7</ele>
        <time>2012-11-02T11:20:57Z</time>
      </trkpt>
      <trkpt lat="43.53535" lon="6.16163">
        <ele>416.3</ele>
        <time>2012-11-02T11:21:13Z</time>
      </trkpt>
      <trkpt lat="43.53536" lon="6.16174">
        <ele>417.4</ele>
        <time>2012-11-02T11:21:24Z</time>
      </trkpt>
      <trkpt lat="43.53536" lon="6.16176">
        <ele>417.1</ele>
        <time>2012-11-02T11:21:25Z</time>
      </trkpt>
      <trkpt lat="43.53538" lon="6.16198">
        <ele>415.2</ele>
        <time>2012-11-02T11:21:41Z</time>
      </trkpt>
      <trkpt lat="43.5354" lon="6.16209">
        <ele>414.5</ele>
        <time>2012-11-02T11:21:49Z</time>
      </trkpt>
      <trkpt lat="43.53542" lon="6.16221">
        <ele>414.8</ele>
        <time>2012-11-02T11:21:58Z</time>
      </trkpt>
      <trkpt lat="43.53545" lon="6.16232">
        <ele>415.2</ele>
        <time>2012-11-02T11:22:06Z</time>
      </trkpt>
      <trkpt lat="43.53548" lon="6.16243">
        <ele>413.5</ele>
        <time>2012-11-02T11:22:14Z</time>
      </trkpt>
      <trkpt lat="43.5355" lon="6.16254">
        <ele>413</ele>
        <time>2012-11-02T11:22:22Z</time>
      </trkpt>
      <trkpt lat="43.53551" lon="6.16266">
        <ele>413.1</ele>
        <time>2012-11-02T11:22:30Z</time>
      </trkpt>
      <trkpt lat="43.53551" lon="6.16268">
        <ele>413.3</ele>
        <time>2012-11-02T11:22:31Z</time>
      </trkpt>
      <trkpt lat="43.53551" lon="6.16289">
        <ele>412.7</ele>
        <time>2012-11-02T11:22:45Z</time>
      </trkpt>
      <trkpt lat="43.53548" lon="6.163">
        <ele>412.3</ele>
        <time>2012-11-02T11:22:55Z</time>
      </trkpt>
      <trkpt lat="43.5355" lon="6.16311">
        <ele>412.9</ele>
        <time>2012-11-02T11:23:04Z</time>
      </trkpt>
      <trkpt lat="43.53553" lon="6.16321">
        <ele>411.2</ele>
        <time>2012-11-02T11:23:11Z</time>
      </trkpt>
      <trkpt lat="43.53556" lon="6.16332">
        <ele>410.3</ele>
        <time>2012-11-02T11:23:19Z</time>
      </trkpt>
      <trkpt lat="43.53558" lon="6.16343">
        <ele>410.1</ele>
        <time>2012-11-02T11:23:28Z</time>
      </trkpt>
      <trkpt lat="43.53559" lon="6.16355">
        <ele>409.6</ele>
        <time>2012-11-02T11:23:35Z</time>
      </trkpt>
      <trkpt lat="43.53559" lon="6.16356">
        <ele>409.7</ele>
        <time>2012-11-02T11:23:36Z</time>
      </trkpt>
      <trkpt lat="43.53555" lon="6.16377">
        <ele>407.4</ele>
        <time>2012-11-02T11:23:51Z</time>
      </trkpt>
      <trkpt lat="43.53551" lon="6.16387">
        <ele>408.9</ele>
        <time>2012-11-02T11:24:01Z</time>
      </trkpt>
      <trkpt lat="43.53546" lon="6.16397">
        <ele>406.9</ele>
        <time>2012-11-02T11:24:10Z</time>
      </trkpt>
      <trkpt lat="43.53541" lon="6.16405">
        <ele>408.4</ele>
        <time>2012-11-02T11:24:17Z</time>
      </trkpt>
      <trkpt lat="43.53535" lon="6.16413">
        <ele>408.9</ele>
        <time>2012-11-02T11:24:25Z</time>
      </trkpt>
      <trkpt lat="43.5353" lon="6.16422">
        <ele>409.2</ele>
        <time>2012-11-02T11:24:32Z</time>
      </trkpt>
      <trkpt lat="43.53528" lon="6.16434">
        <ele>407.5</ele>
        <time>2012-11-02T11:24:43Z</time>
      </trkpt>
      <trkpt lat="43.53528" lon="6.16435">
        <ele>407</ele>
        <time>2012-11-02T11:24:44Z</time>
      </trkpt>
      <trkpt lat="43.53523" lon="6.16456">
        <ele>408.2</ele>
        <time>2012-11-02T11:25:00Z</time>
      </trkpt>
      <trkpt lat="43.53521" lon="6.16468">
        <ele>406.1</ele>
        <time>2012-11-02T11:25:08Z</time>
      </trkpt>
      <trkpt lat="43.53516" lon="6.16478">
        <ele>405.8</ele>
        <time>2012-11-02T11:25:21Z</time>
      </trkpt>
      <trkpt lat="43.53509" lon="6.16483">
        <ele>406.3</ele>
        <time>2012-11-02T11:25:51Z</time>
      </trkpt>
      <trkpt lat="43.53508" lon="6.16484">
        <ele>406.6</ele>
        <time>2012-11-02T11:25:52Z</time>
      </trkpt>
      <trkpt lat="43.53493" lon="6.16494">
        <ele>405.7</ele>
        <time>2012-11-02T11:26:31Z</time>
      </trkpt>
      <trkpt lat="43.53486" lon="6.16501">
        <ele>404.1</ele>
        <time>2012-11-02T11:26:42Z</time>
      </trkpt>
      <trkpt lat="43.53479" lon="6.16508">
        <ele>403.5</ele>
        <time>2012-11-02T11:26:54Z</time>
      </trkpt>
      <trkpt lat="43.53479" lon="6.16509">
        <ele>403.6</ele>
        <time>2012-11-02T11:26:55Z</time>
      </trkpt>
      <trkpt lat="43.53466" lon="6.1652">
        <ele>401.1</ele>
        <time>2012-11-02T11:27:11Z</time>
      </trkpt>
      <trkpt lat="43.53458" lon="6.16525">
        <ele>400.8</ele>
        <time>2012-11-02T11:27:18Z</time>
      </trkpt>
      <trkpt lat="43.53451" lon="6.16529">
        <ele>400</ele>
        <time>2012-11-02T11:27:25Z</time>
      </trkpt>
      <trkpt lat="43.53443" lon="6.16535">
        <ele>398.6</ele>
        <time>2012-11-02T11:27:34Z</time>
      </trkpt>
      <trkpt lat="43.53436" lon="6.16537">
        <ele>398.2</ele>
        <time>2012-11-02T11:27:41Z</time>
      </trkpt>
      <trkpt lat="43.53427" lon="6.16537">
        <ele>397.6</ele>
        <time>2012-11-02T11:27:48Z</time>
      </trkpt>
      <trkpt lat="43.53419" lon="6.16534">
        <ele>396.9</ele>
        <time>2012-11-02T11:27:55Z</time>
      </trkpt>
      <trkpt lat="43.53412" lon="6.16528">
        <ele>396.9</ele>
        <time>2012-11-02T11:28:03Z</time>
      </trkpt>
      <trkpt lat="43.53411" lon="6.16527">
        <ele>396.7</ele>
        <time>2012-11-02T11:28:04Z</time>
      </trkpt>
      <trkpt lat="43.53403" lon="6.1651">
        <ele>395.5</ele>
        <time>2012-11-02T11:28:19Z</time>
      </trkpt>
      <trkpt lat="43.53394" lon="6.16507">
        <ele>395.1</ele>
        <time>2012-11-02T11:28:43Z</time>
      </trkpt>
      <trkpt lat="43.53386" lon="6.16505">
        <ele>394.9</ele>
        <time>2012-11-02T11:28:53Z</time>
      </trkpt>
      <trkpt lat="43.53379" lon="6.16499">
        <ele>394</ele>
        <time>2012-11-02T11:29:02Z</time>
      </trkpt>
      <trkpt lat="43.53372" lon="6.16493">
        <ele>394.1</ele>
        <time>2012-11-02T11:29:11Z</time>
      </trkpt>
      <trkpt lat="43.53371" lon="6.16492">
        <ele>394.2</ele>
        <time>2012-11-02T11:29:12Z</time>
      </trkpt>
      <trkpt lat="43.53355" lon="6.16494">
        <ele>393.4</ele>
        <time>2012-11-02T11:29:30Z</time>
      </trkpt>
      <trkpt lat="43.53351" lon="6.16505">
        <ele>393.1</ele>
        <time>2012-11-02T11:29:44Z</time>
      </trkpt>
      <trkpt lat="43.53344" lon="6.16514">
        <ele>391.7</ele>
        <time>2012-11-02T11:29:57Z</time>
      </trkpt>
      <trkpt lat="43.53341" lon="6.16524">
        <ele>390.5</ele>
        <time>2012-11-02T11:30:30Z</time>
      </trkpt>
      <trkpt lat="43.5334" lon="6.16525">
        <ele>391.2</ele>
        <time>2012-11-02T11:30:31Z</time>
      </trkpt>
      <trkpt lat="43.53326" lon="6.16526">
        <ele>389.9</ele>
        <time>2012-11-02T11:31:11Z</time>
      </trkpt>
      <trkpt lat="43.53323" lon="6.16516">
        <ele>391</ele>
        <time>2012-11-02T11:31:29Z</time>
      </trkpt>
      <trkpt lat="43.53315" lon="6.1651">
        <ele>388.3</ele>
        <time>2012-11-02T11:32:03Z</time>
      </trkpt>
      <trkpt lat="43.53314" lon="6.16511">
        <ele>388.1</ele>
        <time>2012-11-02T11:32:04Z</time>
      </trkpt>
      <trkpt lat="43.53317" lon="6.16533">
        <ele>388.4</ele>
        <time>2012-11-02T11:32:31Z</time>
      </trkpt>
      <trkpt lat="43.53321" lon="6.16543">
        <ele>388.1</ele>
        <time>2012-11-02T11:32:43Z</time>
      </trkpt>
      <trkpt lat="43.53314" lon="6.16551">
        <ele>386.5</ele>
        <time>2012-11-02T11:33:01Z</time>
      </trkpt>
      <trkpt lat="43.53306" lon="6.16556">
        <ele>384.5</ele>
        <time>2012-11-02T11:33:16Z</time>
      </trkpt>
      <trkpt lat="43.53306" lon="6.16556">
        <ele>384.8</ele>
        <time>2012-11-02T11:33:17Z</time>
      </trkpt>
      <trkpt lat="43.53301" lon="6.16576">
        <ele>382.1</ele>
        <time>2012-11-02T11:33:47Z</time>
      </trkpt>
      <trkpt lat="43.53294" lon="6.16583">
        <ele>380.4</ele>
        <time>2012-11-02T11:35:57Z</time>
      </trkpt>
      <trkpt lat="43.53294" lon="6.16583">
        <ele>380.3</ele>
        <time>2012-11-02T11:35:58Z</time>
      </trkpt>
      <trkpt lat="43.53303" lon="6.1658">
        <ele>381.1</ele>
        <time>2012-11-02T11:48:27Z</time>
      </trkpt>
      <trkpt lat="43.53296" lon="6.16572">
        <ele>380.7</ele>
        <time>2012-11-02T12:19:59Z</time>
      </trkpt>
      <trkpt lat="43.53287" lon="6.16569">
        <ele>380.2</ele>
        <time>2012-11-02T12:23:59Z</time>
      </trkpt>
      <trkpt lat="43.53285" lon="6.16547">
        <ele>381.3</ele>
        <time>2012-11-02T12:24:22Z</time>
      </trkpt>
      <trkpt lat="43.53285" lon="6.16535">
        <ele>380.9</ele>
        <time>2012-11-02T12:24:36Z</time>
      </trkpt>
      <trkpt lat="43.53286" lon="6.16524">
        <ele>380.7</ele>
        <time>2012-11-02T12:24:48Z</time>
      </trkpt>
      <trkpt lat="43.53286" lon="6.16512">
        <ele>380.2</ele>
        <time>2012-11-02T12:24:59Z</time>
      </trkpt>
      <trkpt lat="43.53286" lon="6.16511">
        <ele>380.3</ele>
        <time>2012-11-02T12:25:00Z</time>
      </trkpt>
      <trkpt lat="43.53288" lon="6.16489">
        <ele>379.6</ele>
        <time>2012-11-02T12:25:20Z</time>
      </trkpt>
      <trkpt lat="43.53288" lon="6.16477">
        <ele>379</ele>
        <time>2012-11-02T12:25:29Z</time>
      </trkpt>
      <trkpt lat="43.53289" lon="6.16466">
        <ele>378.5</ele>
        <time>2012-11-02T12:25:39Z</time>
      </trkpt>
      <trkpt lat="43.5329" lon="6.16454">
        <ele>378.5</ele>
        <time>2012-11-02T12:26:00Z</time>
      </trkpt>
      <trkpt lat="43.5329" lon="6.16442">
        <ele>379.1</ele>
        <time>2012-11-02T12:26:09Z</time>
      </trkpt>
      <trkpt lat="43.5329" lon="6.16441">
        <ele>379.5</ele>
        <time>2012-11-02T12:26:10Z</time>
      </trkpt>
      <trkpt lat="43.53286" lon="6.16419">
        <ele>378.1</ele>
        <time>2012-11-02T12:26:29Z</time>
      </trkpt>
      <trkpt lat="43.53284" lon="6.16407">
        <ele>378.8</ele>
        <time>2012-11-02T12:26:38Z</time>
      </trkpt>
      <trkpt lat="43.53282" lon="6.16396">
        <ele>378.5</ele>
        <time>2012-11-02T12:26:52Z</time>
      </trkpt>
      <trkpt lat="43.53279" lon="6.16384">
        <ele>378.8</ele>
        <time>2012-11-02T12:27:07Z</time>
      </trkpt>
      <trkpt lat="43.53273" lon="6.16377">
        <ele>379.8</ele>
        <time>2012-11-02T12:27:28Z</time>
      </trkpt>
      <trkpt lat="43.53272" lon="6.16376">
        <ele>379.8</ele>
        <time>2012-11-02T12:27:29Z</time>
      </trkpt>
      <trkpt lat="43.53256" lon="6.16371">
        <ele>382.1</ele>
        <time>2012-11-02T12:27:48Z</time>
      </trkpt>
      <trkpt lat="43.53248" lon="6.16367">
        <ele>382.3</ele>
        <time>2012-11-02T12:27:57Z</time>
      </trkpt>
      <trkpt lat="43.53239" lon="6.16363">
        <ele>384.1</ele>
        <time>2012-11-02T12:28:10Z</time>
      </trkpt>
      <trkpt lat="43.53232" lon="6.16357">
        <ele>384.4</ele>
        <time>2012-11-02T12:28:26Z</time>
      </trkpt>
      <trkpt lat="43.53227" lon="6.16347">
        <ele>385.5</ele>
        <time>2012-11-02T12:28:40Z</time>
      </trkpt>
      <trkpt lat="43.53227" lon="6.16346">
        <ele>385.5</ele>
        <time>2012-11-02T12:28:41Z</time>
      </trkpt>
      <trkpt lat="43.53218" lon="6.16327">
        <ele>385.8</ele>
        <time>2012-11-02T12:29:07Z</time>
      </trkpt>
      <trkpt lat="43.53214" lon="6.16315">
        <ele>385.3</ele>
        <time>2012-11-02T12:29:17Z</time>
      </trkpt>
      <trkpt lat="43.5321" lon="6.16304">
        <ele>385.2</ele>
        <time>2012-11-02T12:29:29Z</time>
      </trkpt>
      <trkpt lat="43.53208" lon="6.16293">
        <ele>384.3</ele>
        <time>2012-11-02T12:29:41Z</time>
      </trkpt>
      <trkpt lat="43.53208" lon="6.16291">
        <ele>384.2</ele>
        <time>2012-11-02T12:29:42Z</time>
      </trkpt>
      <trkpt lat="43.53203" lon="6.16271">
        <ele>383.6</ele>
        <time>2012-11-02T12:29:59Z</time>
      </trkpt>
      <trkpt lat="43.53201" lon="6.16259">
        <ele>382.5</ele>
        <time>2012-11-02T12:30:09Z</time>
      </trkpt>
      <trkpt lat="43.53199" lon="6.16248">
        <ele>381.9</ele>
        <time>2012-11-02T12:30:18Z</time>
      </trkpt>
      <trkpt lat="43.53196" lon="6.16237">
        <ele>381.9</ele>
        <time>2012-11-02T12:30:28Z</time>
      </trkpt>
      <trkpt lat="43.53192" lon="6.16227">
        <ele>381</ele>
        <time>2012-11-02T12:30:39Z</time>
      </trkpt>
      <trkpt lat="43.53187" lon="6.16217">
        <ele>381</ele>
        <time>2012-11-02T12:30:52Z</time>
      </trkpt>
      <trkpt lat="43.53187" lon="6.16216">
        <ele>380.7</ele>
        <time>2012-11-02T12:30:53Z</time>
      </trkpt>
      <trkpt lat="43.53177" lon="6.16199">
        <ele>380.7</ele>
        <time>2012-11-02T12:31:13Z</time>
      </trkpt>
      <trkpt lat="43.53171" lon="6.1619">
        <ele>381.3</ele>
        <time>2012-11-02T12:31:23Z</time>
      </trkpt>
      <trkpt lat="43.53167" lon="6.16179">
        <ele>380.9</ele>
        <time>2012-11-02T12:31:34Z</time>
      </trkpt>
      <trkpt lat="43.53162" lon="6.1617">
        <ele>381.9</ele>
        <time>2012-11-02T12:31:43Z</time>
      </trkpt>
      <trkpt lat="43.53156" lon="6.1616">
        <ele>381.3</ele>
        <time>2012-11-02T12:31:57Z</time>
      </trkpt>
      <trkpt lat="43.53156" lon="6.1616">
        <ele>381.6</ele>
        <time>2012-11-02T12:31:58Z</time>
      </trkpt>
      <trkpt lat="43.53146" lon="6.16141">
        <ele>380.8</ele>
        <time>2012-11-02T12:32:20Z</time>
      </trkpt>
      <trkpt lat="43.53141" lon="6.16131">
        <ele>380.2</ele>
        <time>2012-11-02T12:32:33Z</time>
      </trkpt>
      <trkpt lat="43.53136" lon="6.16122">
        <ele>379.5</ele>
        <time>2012-11-02T12:33:27Z</time>
      </trkpt>
      <trkpt lat="43.53135" lon="6.16122">
        <ele>379.8</ele>
        <time>2012-11-02T12:33:28Z</time>
      </trkpt>
      <trkpt lat="43.53128" lon="6.16114">
        <ele>378.4</ele>
        <time>2012-11-02T12:35:34Z</time>
      </trkpt>
      <trkpt lat="43.53123" lon="6.16092">
        <ele>378.4</ele>
        <time>2012-11-02T12:35:54Z</time>
      </trkpt>
      <trkpt lat="43.53119" lon="6.16082">
        <ele>377.6</ele>
        <time>2012-11-02T12:36:04Z</time>
      </trkpt>
      <trkpt lat="43.53116" lon="6.16071">
        <ele>376.6</ele>
        <time>2012-11-02T12:36:13Z</time>
      </trkpt>
      <trkpt lat="43.53111" lon="6.16061">
        <ele>375.1</ele>
        <time>2012-11-02T12:36:23Z</time>
      </trkpt>
      <trkpt lat="43.53105" lon="6.16052">
        <ele>375.8</ele>
        <time>2012-11-02T12:36:32Z</time>
      </trkpt>
      <trkpt lat="43.53099" lon="6.16043">
        <ele>374.4</ele>
        <time>2012-11-02T12:36:41Z</time>
      </trkpt>
      <trkpt lat="43.53098" lon="6.16042">
        <ele>374.6</ele>
        <time>2012-11-02T12:36:42Z</time>
      </trkpt>
      <trkpt lat="43.53087" lon="6.16026">
        <ele>373.7</ele>
        <time>2012-11-02T12:37:01Z</time>
      </trkpt>
      <trkpt lat="43.53082" lon="6.16016">
        <ele>371.6</ele>
        <time>2012-11-02T12:37:11Z</time>
      </trkpt>
      <trkpt lat="43.53079" lon="6.16006">
        <ele>372.6</ele>
        <time>2012-11-02T12:37:20Z</time>
      </trkpt>
      <trkpt lat="43.53078" lon="6.15994">
        <ele>371.4</ele>
        <time>2012-11-02T12:37:29Z</time>
      </trkpt>
      <trkpt lat="43.53079" lon="6.15982">
        <ele>370.2</ele>
        <time>2012-11-02T12:37:38Z</time>
      </trkpt>
      <trkpt lat="43.53081" lon="6.15971">
        <ele>369</ele>
        <time>2012-11-02T12:37:48Z</time>
      </trkpt>
      <trkpt lat="43.53081" lon="6.1597">
        <ele>369</ele>
        <time>2012-11-02T12:37:49Z</time>
      </trkpt>
      <trkpt lat="43.53068" lon="6.15961">
        <ele>364.7</ele>
        <time>2012-11-02T12:38:11Z</time>
      </trkpt>
      <trkpt lat="43.5306" lon="6.15962">
        <ele>362.8</ele>
        <time>2012-11-02T12:38:21Z</time>
      </trkpt>
      <trkpt lat="43.53052" lon="6.15964">
        <ele>360.7</ele>
        <time>2012-11-02T12:38:31Z</time>
      </trkpt>
      <trkpt lat="43.53043" lon="6.15967">
        <ele>360.4</ele>
        <time>2012-11-02T12:38:41Z</time>
      </trkpt>
      <trkpt lat="43.53036" lon="6.15974">
        <ele>360</ele>
        <time>2012-11-02T12:38:50Z</time>
      </trkpt>
      <trkpt lat="43.53035" lon="6.15974">
        <ele>360.1</ele>
        <time>2012-11-02T12:38:51Z</time>
      </trkpt>
      <trkpt lat="43.53022" lon="6.15961">
        <ele>356.9</ele>
        <time>2012-11-02T12:39:12Z</time>
      </trkpt>
      <trkpt lat="43.53016" lon="6.15953">
        <ele>355.6</ele>
        <time>2012-11-02T12:39:22Z</time>
      </trkpt>
      <trkpt lat="43.53009" lon="6.15945">
        <ele>354</ele>
        <time>2012-11-02T12:39:33Z</time>
      </trkpt>
      <trkpt lat="43.53003" lon="6.15937">
        <ele>353</ele>
        <time>2012-11-02T12:39:43Z</time>
      </trkpt>
      <trkpt lat="43.52997" lon="6.15929">
        <ele>351</ele>
        <time>2012-11-02T12:39:53Z</time>
      </trkpt>
      <trkpt lat="43.52997" lon="6.15928">
        <ele>351</ele>
        <time>2012-11-02T12:39:54Z</time>
      </trkpt>
      <trkpt lat="43.52985" lon="6.15912">
        <ele>348.6</ele>
        <time>2012-11-02T12:40:13Z</time>
      </trkpt>
      <trkpt lat="43.5298" lon="6.15904">
        <ele>347.1</ele>
        <time>2012-11-02T12:40:22Z</time>
      </trkpt>
      <trkpt lat="43.52974" lon="6.15895">
        <ele>346.6</ele>
        <time>2012-11-02T12:40:31Z</time>
      </trkpt>
      <trkpt lat="43.52969" lon="6.15886">
        <ele>346.8</ele>
        <time>2012-11-02T12:40:39Z</time>
      </trkpt>
      <trkpt lat="43.52961" lon="6.15879">
        <ele>347</ele>
        <time>2012-11-02T12:40:48Z</time>
      </trkpt>
      <trkpt lat="43.52954" lon="6.15873">
        <ele>346.6</ele>
        <time>2012-11-02T12:40:57Z</time>
      </trkpt>
      <trkpt lat="43.52954" lon="6.15873">
        <ele>346.6</ele>
        <time>2012-11-02T12:40:58Z</time>
      </trkpt>
      <trkpt lat="43.52939" lon="6.15862">
        <ele>346</ele>
        <time>2012-11-02T12:41:16Z</time>
      </trkpt>
      <trkpt lat="43.52932" lon="6.15855">
        <ele>345.9</ele>
        <time>2012-11-02T12:41:25Z</time>
      </trkpt>
      <trkpt lat="43.52924" lon="6.15852">
        <ele>346.2</ele>
        <time>2012-11-02T12:41:34Z</time>
      </trkpt>
      <trkpt lat="43.52916" lon="6.15849">
        <ele>346.9</ele>
        <time>2012-11-02T12:41:42Z</time>
      </trkpt>
      <trkpt lat="43.52908" lon="6.15845">
        <ele>347.1</ele>
        <time>2012-11-02T12:41:51Z</time>
      </trkpt>
      <trkpt lat="43.529" lon="6.1584">
        <ele>347.1</ele>
        <time>2012-11-02T12:42:00Z</time>
      </trkpt>
      <trkpt lat="43.52899" lon="6.1584">
        <ele>347.1</ele>
        <time>2012-11-02T12:42:01Z</time>
      </trkpt>
      <trkpt lat="43.52883" lon="6.15831">
        <ele>347.7</ele>
        <time>2012-11-02T12:42:21Z</time>
      </trkpt>
      <trkpt lat="43.52874" lon="6.15828">
        <ele>346.3</ele>
        <time>2012-11-02T12:42:58Z</time>
      </trkpt>
      <trkpt lat="43.52868" lon="6.1582">
        <ele>347</ele>
        <time>2012-11-02T12:44:42Z</time>
      </trkpt>
      <trkpt lat="43.52867" lon="6.15819">
        <ele>346.5</ele>
        <time>2012-11-02T12:44:43Z</time>
      </trkpt>
      <trkpt lat="43.52856" lon="6.15804">
        <ele>344.6</ele>
        <time>2012-11-02T12:45:03Z</time>
      </trkpt>
      <trkpt lat="43.52859" lon="6.15792">
        <ele>342.4</ele>
        <time>2012-11-02T12:45:32Z</time>
      </trkpt>
      <trkpt lat="43.52865" lon="6.15785">
        <ele>341.7</ele>
        <time>2012-11-02T12:45:46Z</time>
      </trkpt>
      <trkpt lat="43.52866" lon="6.15785">
        <ele>341.7</ele>
        <time>2012-11-02T12:45:47Z</time>
      </trkpt>
      <trkpt lat="43.52875" lon="6.15766">
        <ele>337.6</ele>
        <time>2012-11-02T12:46:07Z</time>
      </trkpt>
      <trkpt lat="43.52882" lon="6.15759">
        <ele>335</ele>
        <time>2012-11-02T12:46:15Z</time>
      </trkpt>
      <trkpt lat="43.52888" lon="6.15749">
        <ele>333.9</ele>
        <time>2012-11-02T12:46:25Z</time>
      </trkpt>
      <trkpt lat="43.52893" lon="6.15739">
        <ele>332</ele>
        <time>2012-11-02T12:46:35Z</time>
      </trkpt>
      <trkpt lat="43.52895" lon="6.15728">
        <ele>331.1</ele>
        <time>2012-11-02T12:46:48Z</time>
      </trkpt>
      <trkpt lat="43.52896" lon="6.15727">
        <ele>331.1</ele>
        <time>2012-11-02T12:46:49Z</time>
      </trkpt>
      <trkpt lat="43.52898" lon="6.15704">
        <ele>329.6</ele>
        <time>2012-11-02T12:47:07Z</time>
      </trkpt>
      <trkpt lat="43.52896" lon="6.15692">
        <ele>328.1</ele>
        <time>2012-11-02T12:47:17Z</time>
      </trkpt>
      <trkpt lat="43.52894" lon="6.15681">
        <ele>326.2</ele>
        <time>2012-11-02T12:47:28Z</time>
      </trkpt>
      <trkpt lat="43.52891" lon="6.1567">
        <ele>325.1</ele>
        <time>2012-11-02T12:47:36Z</time>
      </trkpt>
      <trkpt lat="43.52892" lon="6.15657">
        <ele>323.4</ele>
        <time>2012-11-02T12:47:47Z</time>
      </trkpt>
      <trkpt lat="43.52893" lon="6.15645">
        <ele>322.1</ele>
        <time>2012-11-02T12:47:59Z</time>
      </trkpt>
      <trkpt lat="43.52892" lon="6.15644">
        <ele>322.3</ele>
        <time>2012-11-02T12:48:00Z</time>
      </trkpt>
      <trkpt lat="43.52896" lon="6.15622">
        <ele>319.3</ele>
        <time>2012-11-02T12:48:26Z</time>
      </trkpt>
      <trkpt lat="43.52901" lon="6.15614">
        <ele>318.2</ele>
        <time>2012-11-02T12:48:34Z</time>
      </trkpt>
      <trkpt lat="43.52907" lon="6.15604">
        <ele>316.9</ele>
        <time>2012-11-02T12:48:43Z</time>
      </trkpt>
      <trkpt lat="43.52913" lon="6.15595">
        <ele>317.8</ele>
        <time>2012-11-02T12:48:52Z</time>
      </trkpt>
      <trkpt lat="43.52916" lon="6.15584">
        <ele>315.4</ele>
        <time>2012-11-02T12:49:06Z</time>
      </trkpt>
      <trkpt lat="43.52916" lon="6.15583">
        <ele>314.9</ele>
        <time>2012-11-02T12:49:07Z</time>
      </trkpt>
      <trkpt lat="43.52916" lon="6.15562">
        <ele>313.4</ele>
        <time>2012-11-02T12:49:25Z</time>
      </trkpt>
      <trkpt lat="43.52915" lon="6.1555">
        <ele>312.5</ele>
        <time>2012-11-02T12:49:36Z</time>
      </trkpt>
      <trkpt lat="43.52915" lon="6.15539">
        <ele>310.8</ele>
        <time>2012-11-02T12:49:46Z</time>
      </trkpt>
      <trkpt lat="43.52914" lon="6.15527">
        <ele>310.6</ele>
        <time>2012-11-02T12:49:56Z</time>
      </trkpt>
      <trkpt lat="43.52913" lon="6.15515">
        <ele>310.4</ele>
        <time>2012-11-02T12:50:06Z</time>
      </trkpt>
      <trkpt lat="43.52912" lon="6.15503">
        <ele>309.1</ele>
        <time>2012-11-02T12:50:16Z</time>
      </trkpt>
      <trkpt lat="43.52912" lon="6.15502">
        <ele>309.3</ele>
        <time>2012-11-02T12:50:17Z</time>
      </trkpt>
      <trkpt lat="43.52911" lon="6.1548">
        <ele>307.5</ele>
        <time>2012-11-02T12:50:36Z</time>
      </trkpt>
      <trkpt lat="43.52914" lon="6.15469">
        <ele>306.9</ele>
        <time>2012-11-02T12:50:45Z</time>
      </trkpt>
      <trkpt lat="43.52919" lon="6.15461">
        <ele>306.8</ele>
        <time>2012-11-02T12:50:54Z</time>
      </trkpt>
      <trkpt lat="43.52926" lon="6.15453">
        <ele>305.3</ele>
        <time>2012-11-02T12:51:04Z</time>
      </trkpt>
      <trkpt lat="43.52933" lon="6.15447">
        <ele>304.2</ele>
        <time>2012-11-02T12:51:14Z</time>
      </trkpt>
      <trkpt lat="43.52942" lon="6.15443">
        <ele>304.3</ele>
        <time>2012-11-02T12:51:24Z</time>
      </trkpt>
      <trkpt lat="43.52943" lon="6.15442">
        <ele>304.2</ele>
        <time>2012-11-02T12:51:25Z</time>
      </trkpt>
      <trkpt lat="43.52958" lon="6.15434">
        <ele>302.1</ele>
        <time>2012-11-02T12:52:03Z</time>
      </trkpt>
      <trkpt lat="43.52967" lon="6.15431">
        <ele>301.5</ele>
        <time>2012-11-02T12:52:17Z</time>
      </trkpt>
      <trkpt lat="43.52975" lon="6.1543">
        <ele>300.1</ele>
        <time>2012-11-02T12:52:57Z</time>
      </trkpt>
      <trkpt lat="43.52976" lon="6.1543">
        <ele>299.7</ele>
        <time>2012-11-02T12:52:58Z</time>
      </trkpt>
      <trkpt lat="43.52984" lon="6.15426">
        <ele>298.5</ele>
        <time>2012-11-02T12:54:13Z</time>
      </trkpt>
      <trkpt lat="43.52997" lon="6.15411">
        <ele>297.1</ele>
        <time>2012-11-02T12:54:36Z</time>
      </trkpt>
      <trkpt lat="43.53005" lon="6.15406">
        <ele>296.6</ele>
        <time>2012-11-02T12:56:13Z</time>
      </trkpt>
      <trkpt lat="43.53006" lon="6.15406">
        <ele>296.1</ele>
        <time>2012-11-02T12:56:14Z</time>
      </trkpt>
      <trkpt lat="43.53022" lon="6.15401">
        <ele>294.3</ele>
        <time>2012-11-02T12:56:37Z</time>
      </trkpt>
      <trkpt lat="43.5302" lon="6.15389">
        <ele>294.1</ele>
        <time>2012-11-02T12:57:00Z</time>
      </trkpt>
      <trkpt lat="43.53012" lon="6.1539">
        <ele>293.4</ele>
        <time>2012-11-02T12:57:14Z</time>
      </trkpt>
      <trkpt lat="43.53011" lon="6.1539">
        <ele>293.2</ele>
        <time>2012-11-02T12:57:15Z</time>
      </trkpt>
      <trkpt lat="43.53" lon="6.15381">
        <ele>292.4</ele>
        <time>2012-11-02T12:58:06Z</time>
      </trkpt>
      <trkpt lat="43.52999" lon="6.1537">
        <ele>291.1</ele>
        <time>2012-11-02T12:58:28Z</time>
      </trkpt>
      <trkpt lat="43.52999" lon="6.15369">
        <ele>291.1</ele>
        <time>2012-11-02T12:58:29Z</time>
      </trkpt>
      <trkpt lat="43.53002" lon="6.15346">
        <ele>289.1</ele>
        <time>2012-11-02T12:59:21Z</time>
      </trkpt>
      <trkpt lat="43.53005" lon="6.15335">
        <ele>289.2</ele>
        <time>2012-11-02T12:59:33Z</time>
      </trkpt>
      <trkpt lat="43.53005" lon="6.15334">
        <ele>288.7</ele>
        <time>2012-11-02T12:59:34Z</time>
      </trkpt>
      <trkpt lat="43.53002" lon="6.15312">
        <ele>287.8</ele>
        <time>2012-11-02T12:59:53Z</time>
      </trkpt>
      <trkpt lat="43.52997" lon="6.15302">
        <ele>287.4</ele>
        <time>2012-11-02T13:00:05Z</time>
      </trkpt>
      <trkpt lat="43.5299" lon="6.15294">
        <ele>286</ele>
        <time>2012-11-02T13:00:17Z</time>
      </trkpt>
      <trkpt lat="43.52987" lon="6.15284">
        <ele>284.9</ele>
        <time>2012-11-02T13:00:30Z</time>
      </trkpt>
      <trkpt lat="43.52988" lon="6.15272">
        <ele>282.9</ele>
        <time>2012-11-02T13:00:48Z</time>
      </trkpt>
      <trkpt lat="43.52988" lon="6.15271">
        <ele>283.7</ele>
        <time>2012-11-02T13:00:49Z</time>
      </trkpt>
      <trkpt lat="43.52982" lon="6.15249">
        <ele>281.1</ele>
        <time>2012-11-02T13:02:15Z</time>
      </trkpt>
      <trkpt lat="43.52982" lon="6.15248">
        <ele>280.9</ele>
        <time>2012-11-02T13:02:16Z</time>
      </trkpt>
      <trkpt lat="43.5299" lon="6.15241">
        <ele>281.3</ele>
        <time>2012-11-02T13:03:26Z</time>
      </trkpt>
      <trkpt lat="43.52992" lon="6.15219">
        <ele>281.2</ele>
        <time>2012-11-02T13:03:47Z</time>
      </trkpt>
      <trkpt lat="43.52991" lon="6.15206">
        <ele>280.4</ele>
        <time>2012-11-02T13:03:59Z</time>
      </trkpt>
      <trkpt lat="43.52992" lon="6.15195">
        <ele>279.9</ele>
        <time>2012-11-02T13:04:08Z</time>
      </trkpt>
      <trkpt lat="43.52993" lon="6.15183">
        <ele>279.5</ele>
        <time>2012-11-02T13:04:23Z</time>
      </trkpt>
      <trkpt lat="43.52995" lon="6.15171">
        <ele>277.7</ele>
        <time>2012-11-02T13:04:34Z</time>
      </trkpt>
      <trkpt lat="43.52995" lon="6.1517">
        <ele>277.6</ele>
        <time>2012-11-02T13:04:35Z</time>
      </trkpt>
      <trkpt lat="43.52995" lon="6.15147">
        <ele>274.3</ele>
        <time>2012-11-02T13:05:01Z</time>
      </trkpt>
      <trkpt lat="43.52998" lon="6.15135">
        <ele>271.3</ele>
        <time>2012-11-02T13:05:20Z</time>
      </trkpt>
      <trkpt lat="43.52996" lon="6.15124">
        <ele>269.6</ele>
        <time>2012-11-02T13:05:45Z</time>
      </trkpt>
      <trkpt lat="43.52996" lon="6.15123">
        <ele>269.8</ele>
        <time>2012-11-02T13:05:46Z</time>
      </trkpt>
      <trkpt lat="43.53011" lon="6.15111">
        <ele>268.8</ele>
        <time>2012-11-02T13:06:22Z</time>
      </trkpt>
      <trkpt lat="43.53017" lon="6.15102">
        <ele>268.3</ele>
        <time>2012-11-02T13:06:35Z</time>
      </trkpt>
      <trkpt lat="43.53019" lon="6.15091">
        <ele>268.1</ele>
        <time>2012-11-02T13:06:46Z</time>
      </trkpt>
      <trkpt lat="43.5302" lon="6.1509">
        <ele>268.2</ele>
        <time>2012-11-02T13:06:47Z</time>
      </trkpt>
      <trkpt lat="43.53029" lon="6.15073">
        <ele>269.1</ele>
        <time>2012-11-02T13:07:06Z</time>
      </trkpt>
      <trkpt lat="43.5303" lon="6.15061">
        <ele>269.6</ele>
        <time>2012-11-02T13:07:27Z</time>
      </trkpt>
      <trkpt lat="43.53023" lon="6.15055">
        <ele>269.4</ele>
        <time>2012-11-02T13:07:33Z</time>
      </trkpt>
      <trkpt lat="43.53016" lon="6.15049">
        <ele>269.2</ele>
        <time>2012-11-02T13:08:02Z</time>
      </trkpt>
      <trkpt lat="43.53015" lon="6.15048">
        <ele>269.1</ele>
        <time>2012-11-02T13:08:03Z</time>
      </trkpt>
      <trkpt lat="43.53003" lon="6.15035">
        <ele>270.8</ele>
        <time>2012-11-02T13:08:42Z</time>
      </trkpt>
      <trkpt lat="43.52999" lon="6.15024">
        <ele>271.6</ele>
        <time>2012-11-02T13:08:51Z</time>
      </trkpt>
      <trkpt lat="43.52997" lon="6.15014">
        <ele>271.4</ele>
        <time>2012-11-02T13:08:59Z</time>
      </trkpt>
      <trkpt lat="43.52997" lon="6.15002">
        <ele>273.4</ele>
        <time>2012-11-02T13:09:09Z</time>
      </trkpt>
      <trkpt lat="43.52998" lon="6.15001">
        <ele>274.1</ele>
        <time>2012-11-02T13:09:10Z</time>
      </trkpt>
      <trkpt lat="43.52996" lon="6.14978">
        <ele>274</ele>
        <time>2012-11-02T13:10:00Z</time>
      </trkpt>
      <trkpt lat="43.52993" lon="6.14989">
        <ele>275.1</ele>
        <time>2012-11-02T13:10:30Z</time>
      </trkpt>
      <trkpt lat="43.52993" lon="6.1499">
        <ele>275.2</ele>
        <time>2012-11-02T13:10:31Z</time>
      </trkpt>
      <trkpt lat="43.52988" lon="6.14991">
        <ele>269.7</ele>
        <time>2012-11-02T13:11:04Z</time>
      </trkpt>
      <trkpt lat="43.52982" lon="6.14983">
        <ele>268.6</ele>
        <time>2012-11-02T13:11:10Z</time>
      </trkpt>
      <trkpt lat="43.52973" lon="6.14984">
        <ele>267.6</ele>
        <time>2012-11-02T13:11:18Z</time>
      </trkpt>
      <trkpt lat="43.52965" lon="6.14989">
        <ele>267.3</ele>
        <time>2012-11-02T13:11:30Z</time>
      </trkpt>
      <trkpt lat="43.52957" lon="6.14992">
        <ele>264.7</ele>
        <time>2012-11-02T13:11:48Z</time>
      </trkpt>
      <trkpt lat="43.52956" lon="6.14992">
        <ele>264.6</ele>
        <time>2012-11-02T13:11:49Z</time>
      </trkpt>
      <trkpt lat="43.52946" lon="6.15004">
        <ele>256.2</ele>
        <time>2012-11-02T13:12:26Z</time>
      </trkpt>
      <trkpt lat="43.52938" lon="6.15">
        <ele>256.5</ele>
        <time>2012-11-02T13:13:28Z</time>
      </trkpt>
      <trkpt lat="43.52937" lon="6.15">
        <ele>256.7</ele>
        <time>2012-11-02T13:13:29Z</time>
      </trkpt>
      <trkpt lat="43.52922" lon="6.15005">
        <ele>253.9</ele>
        <time>2012-11-02T13:13:55Z</time>
      </trkpt>
      <trkpt lat="43.52918" lon="6.14993">
        <ele>252.5</ele>
        <time>2012-11-02T13:15:49Z</time>
      </trkpt>
      <trkpt lat="43.52918" lon="6.14993">
        <ele>251.8</ele>
        <time>2012-11-02T13:15:50Z</time>
      </trkpt>
      <trkpt lat="43.52912" lon="6.14972">
        <ele>252.2</ele>
        <time>2012-11-02T13:16:34Z</time>
      </trkpt>
      <trkpt lat="43.52907" lon="6.14961">
        <ele>252.1</ele>
        <time>2012-11-02T13:16:57Z</time>
      </trkpt>
      <trkpt lat="43.52907" lon="6.1496">
        <ele>252.3</ele>
        <time>2012-11-02T13:16:58Z</time>
      </trkpt>
      <trkpt lat="43.52894" lon="6.14951">
        <ele>252.8</ele>
        <time>2012-11-02T13:17:23Z</time>
      </trkpt>
      <trkpt lat="43.5289" lon="6.1494">
        <ele>252.6</ele>
        <time>2012-11-02T13:18:01Z</time>
      </trkpt>
      <trkpt lat="43.52889" lon="6.14939">
        <ele>252.7</ele>
        <time>2012-11-02T13:18:02Z</time>
      </trkpt>
      <trkpt lat="43.529" lon="6.14923">
        <ele>252.9</ele>
        <time>2012-11-02T13:18:41Z</time>
      </trkpt>
      <trkpt lat="43.529" lon="6.14911">
        <ele>254</ele>
        <time>2012-11-02T13:20:48Z</time>
      </trkpt>
      <trkpt lat="43.52901" lon="6.14911">
        <ele>254</ele>
        <time>2012-11-02T13:20:49Z</time>
      </trkpt>
      <trkpt lat="43.52907" lon="6.14893">
        <ele>256.2</ele>
        <time>2012-11-02T13:21:46Z</time>
      </trkpt>
      <trkpt lat="43.52912" lon="6.14883">
        <ele>257.2</ele>
        <time>2012-11-02T13:22:12Z</time>
      </trkpt>
      <trkpt lat="43.52912" lon="6.14882">
        <ele>257</ele>
        <time>2012-11-02T13:22:13Z</time>
      </trkpt>
      <trkpt lat="43.52908" lon="6.14859">
        <ele>260.8</ele>
        <time>2012-11-02T13:23:08Z</time>
      </trkpt>
      <trkpt lat="43.52914" lon="6.1485">
        <ele>261.3</ele>
        <time>2012-11-02T13:23:30Z</time>
      </trkpt>
      <trkpt lat="43.52914" lon="6.14849">
        <ele>261.5</ele>
        <time>2012-11-02T13:23:31Z</time>
      </trkpt>
      <trkpt lat="43.52903" lon="6.14853">
        <ele>262.5</ele>
        <time>2012-11-02T13:26:01Z</time>
      </trkpt>
      <trkpt lat="43.52903" lon="6.14852">
        <ele>262.3</ele>
        <time>2012-11-02T13:26:02Z</time>
      </trkpt>
      <trkpt lat="43.52905" lon="6.14866">
        <ele>262</ele>
        <time>2012-11-02T13:29:25Z</time>
      </trkpt>
      <trkpt lat="43.52911" lon="6.14855">
        <ele>261.8</ele>
        <time>2012-11-02T13:30:43Z</time>
      </trkpt>
      <trkpt lat="43.5292" lon="6.14838">
        <ele>261.5</ele>
        <time>2012-11-02T13:31:39Z</time>
      </trkpt>
      <trkpt lat="43.52913" lon="6.14844">
        <ele>258.8</ele>
        <time>2012-11-02T13:32:14Z</time>
      </trkpt>
      <trkpt lat="43.52912" lon="6.14845">
        <ele>259.4</ele>
        <time>2012-11-02T13:32:15Z</time>
      </trkpt>
      <trkpt lat="43.52906" lon="6.14865">
        <ele>258.9</ele>
        <time>2012-11-02T13:32:28Z</time>
      </trkpt>
      <trkpt lat="43.52906" lon="6.14877">
        <ele>255.9</ele>
        <time>2012-11-02T13:33:02Z</time>
      </trkpt>
      <trkpt lat="43.52909" lon="6.14889">
        <ele>255.1</ele>
        <time>2012-11-02T13:33:17Z</time>
      </trkpt>
      <trkpt lat="43.52908" lon="6.1489">
        <ele>255.6</ele>
        <time>2012-11-02T13:33:18Z</time>
      </trkpt>
      <trkpt lat="43.5291" lon="6.14913">
        <ele>252.9</ele>
        <time>2012-11-02T13:33:44Z</time>
      </trkpt>
      <trkpt lat="43.52904" lon="6.14922">
        <ele>251.2</ele>
        <time>2012-11-02T13:34:13Z</time>
      </trkpt>
      <trkpt lat="43.52898" lon="6.14932">
        <ele>252.3</ele>
        <time>2012-11-02T13:35:17Z</time>
      </trkpt>
      <trkpt lat="43.52898" lon="6.14932">
        <ele>252</ele>
        <time>2012-11-02T13:35:18Z</time>
      </trkpt>
      <trkpt lat="43.52885" lon="6.14937">
        <ele>251.1</ele>
        <time>2012-11-02T13:35:39Z</time>
      </trkpt>
      <trkpt lat="43.52881" lon="6.14948">
        <ele>249</ele>
        <time>2012-11-02T13:36:00Z</time>
      </trkpt>
      <trkpt lat="43.52881" lon="6.1496">
        <ele>249.3</ele>
        <time>2012-11-02T13:36:14Z</time>
      </trkpt>
      <trkpt lat="43.52878" lon="6.14971">
        <ele>248</ele>
        <time>2012-11-02T13:36:44Z</time>
      </trkpt>
      <trkpt lat="43.52878" lon="6.14971">
        <ele>247.8</ele>
        <time>2012-11-02T13:36:45Z</time>
      </trkpt>
      <trkpt lat="43.52865" lon="6.1498">
        <ele>247.6</ele>
        <time>2012-11-02T13:37:05Z</time>
      </trkpt>
      <trkpt lat="43.52871" lon="6.14989">
        <ele>246.7</ele>
        <time>2012-11-02T13:37:26Z</time>
      </trkpt>
      <trkpt lat="43.52862" lon="6.14986">
        <ele>246.3</ele>
        <time>2012-11-02T13:38:10Z</time>
      </trkpt>
      <trkpt lat="43.52862" lon="6.14986">
        <ele>247</ele>
        <time>2012-11-02T13:38:11Z</time>
      </trkpt>
      <trkpt lat="43.52851" lon="6.14971">
        <ele>247.4</ele>
        <time>2012-11-02T13:38:34Z</time>
      </trkpt>
      <trkpt lat="43.52842" lon="6.14972">
        <ele>246.5</ele>
        <time>2012-11-02T13:38:44Z</time>
      </trkpt>
      <trkpt lat="43.52835" lon="6.14978">
        <ele>244.8</ele>
        <time>2012-11-02T13:38:57Z</time>
      </trkpt>
      <trkpt lat="43.52827" lon="6.14985">
        <ele>245.1</ele>
        <time>2012-11-02T13:39:15Z</time>
      </trkpt>
      <trkpt lat="43.52827" lon="6.14986">
        <ele>245.1</ele>
        <time>2012-11-02T13:39:16Z</time>
      </trkpt>
      <trkpt lat="43.5282" lon="6.14978">
        <ele>246.7</ele>
        <time>2012-11-02T13:40:42Z</time>
      </trkpt>
      <trkpt lat="43.52817" lon="6.14956">
        <ele>246.4</ele>
        <time>2012-11-02T13:41:14Z</time>
      </trkpt>
      <trkpt lat="43.52813" lon="6.14946">
        <ele>246.8</ele>
        <time>2012-11-02T13:41:23Z</time>
      </trkpt>
      <trkpt lat="43.52809" lon="6.14936">
        <ele>246</ele>
        <time>2012-11-02T13:41:34Z</time>
      </trkpt>
      <trkpt lat="43.52801" lon="6.14931">
        <ele>248.2</ele>
        <time>2012-11-02T13:42:03Z</time>
      </trkpt>
      <trkpt lat="43.528" lon="6.14931">
        <ele>248.3</ele>
        <time>2012-11-02T13:42:04Z</time>
      </trkpt>
      <trkpt lat="43.52795" lon="6.14922">
        <ele>247.7</ele>
        <time>2012-11-02T13:43:05Z</time>
      </trkpt>
      <trkpt lat="43.5278" lon="6.1493">
        <ele>245.5</ele>
        <time>2012-11-02T13:43:38Z</time>
      </trkpt>
      <trkpt lat="43.52771" lon="6.14925">
        <ele>245.5</ele>
        <time>2012-11-02T13:44:02Z</time>
      </trkpt>
      <trkpt lat="43.52763" lon="6.14922">
        <ele>245.1</ele>
        <time>2012-11-02T13:44:28Z</time>
      </trkpt>
      <trkpt lat="43.52762" lon="6.14922">
        <ele>245.1</ele>
        <time>2012-11-02T13:44:29Z</time>
      </trkpt>
    </trkseg>
  </trk>
</gpx>